M I D A S
Marine Information and Data Acquisition System
Tripno 2072 of the Zeeleeuw from 2011-04-05 07:06:15 to 2011-04-05 15:38:27
Back to CruiseResearch ActivitiesStationsMapUnderway DataData graphs

EquipmentUnitsComment
TimeDGPSUTC
LatitudeDGPSDM.mWGS84
LongitudeDGPSDM.mWGS84
TemperatureSBE03/SBE38deg celciusITS90
ConductivitySBE21S/mITS90
SalinitySBE21 Practical Salinity Units
ChlorophylAChelsea fluorimeterg/lCalibrated in Aceton
Missing or incorrect values are displayed as -999
Sea surface data collected by the RV Zeeleeuw from 2011-04-05 07:08:43 to 2011-04-05 15:46:28
                                                                                    Next 1000 lines
Time Latitude Longitude Temperature Conductivity Salinity ChlorophylA
2011-04-05 07:08:52 51°13.662 2°55.957 16.2716 4.5E-5 0.009346 -3.020363
2011-04-05 07:08:57 51°13.663 2°55.954 16.3588 4.5E-5 0.009346 -3.020363
2011-04-05 07:09:03 51°13.665 2°55.949 16.3314 4.5E-5 0.009345 -3.020363
2011-04-05 07:09:07 51°13.666 2°55.944 16.3318 4.5E-5 0.009345 -3.020363
2011-04-05 07:09:13 51°13.669 2°55.936 16.361 4.5E-5 0.009345 -3.020363
2011-04-05 07:09:18 51°13.671 2°55.929 16.3503 4.5E-5 0.009345 -3.020363
2011-04-05 07:09:23 51°13.673 2°55.921 16.3909 4.5E-5 0.009344 -3.020363
2011-04-05 07:09:28 51°13.674 2°55.912 16.3886 4.5E-5 0.009344 -3.020363
2011-04-05 07:09:33 51°13.676 2°55.904 16.4113 4.5E-5 0.009344 -3.020363
2011-04-05 07:09:38 51°13.677 2°55.896 16.3957 4.5E-5 0.009343 -3.020363
2011-04-05 07:09:43 51°13.679 2°55.887 16.4104 4.5E-5 0.009343 -3.020363
2011-04-05 07:09:48 51°13.68 2°55.878 16.3833 4.5E-5 0.009343 -3.020363
2011-04-05 07:09:53 51°13.681 2°55.87 16.403 4.5E-5 0.009343 -3.020363
2011-04-05 07:09:58 51°13.682 2°55.861 16.3672 4.5E-5 0.009343 -3.020363
2011-04-05 07:10:03 51°13.684 2°55.851 16.4153 4.5E-5 0.009343 -3.020363
2011-04-05 07:10:08 51°13.685 2°55.842 16.4015 4.5E-5 0.009342 -3.020363
2011-04-05 07:10:13 51°13.686 2°55.833 16.416 4.5E-5 0.009342 -3.020363
2011-04-05 07:10:18 51°13.687 2°55.825 16.4244 4.5E-5 0.009342 -3.020363
2011-04-05 07:10:23 51°13.688 2°55.816 16.4344 4.5E-5 0.009342 -3.020363
2011-04-05 07:10:28 51°13.688 2°55.808 16.4413 4.5E-5 0.009342 -3.020363
2011-04-05 07:10:33 51°13.689 2°55.8 16.4346 4.5E-5 0.009341 -3.020363
2011-04-05 07:10:38 51°13.689 2°55.792 16.4404 4.5E-5 0.009341 -3.020363
2011-04-05 07:10:43 51°13.689 2°55.785 16.4378 4.5E-5 0.009341 -3.020363
2011-04-05 07:10:48 51°13.689 2°55.778 16.4389 4.5E-5 0.009341 -3.020363
2011-04-05 07:10:53 51°13.689 2°55.771 16.4221 4.5E-5 0.009341 -3.020363
2011-04-05 07:10:58 51°13.689 2°55.765 16.4315 4.5E-5 0.009341 -3.020363
2011-04-05 07:11:03 51°13.689 2°55.759 16.456 4.5E-5 0.009341 -3.020363
2011-04-05 07:11:07 51°13.689 2°55.755 16.4583 4.5E-5 0.00934 -3.020363
2011-04-05 07:11:12 51°13.689 2°55.75 16.4618 4.5E-5 0.00934 -3.020363
2011-04-05 07:11:17 51°13.689 2°55.746 16.4688 4.5E-5 0.00934 -3.020363
2011-04-05 07:11:22 51°13.689 2°55.743 16.466 4.5E-5 0.00934 -3.020363
2011-04-05 07:11:27 51°13.689 2°55.742 16.4687 4.5E-5 0.009339 -3.020363
2011-04-05 07:11:31 51°13.689 2°55.74 16.4785 4.5E-5 0.009339 -3.020363
2011-04-05 07:11:37 51°13.69 2°55.739 16.4875 4.5E-5 0.009339 -3.020363
2011-04-05 07:11:41 51°13.69 2°55.738 16.4807 4.5E-5 0.009339 -3.020363
2011-04-05 07:11:47 51°13.691 2°55.738 16.4712 4.5E-5 0.009339 -3.020363
2011-04-05 07:11:51 51°13.691 2°55.737 16.499 4.5E-5 0.009339 -3.020363
2011-04-05 07:11:56 51°13.692 2°55.737 16.4646 4.5E-5 0.009338 -3.020363
2011-04-05 07:12:01 51°13.693 2°55.738 16.4844 4.5E-5 0.009338 -3.020363
2011-04-05 07:12:06 51°13.695 2°55.738 16.4966 4.5E-5 0.009338 -3.020363
2011-04-05 07:12:11 51°13.697 2°55.739 16.5095 4.5E-5 0.009338 -3.020363
2011-04-05 07:12:15 51°13.698 2°55.739 16.4722 4.5E-5 0.009338 -3.020363
2011-04-05 07:12:20 51°13.701 2°55.739 16.4828 4.5E-5 0.009338 -3.020363
2011-04-05 07:12:25 51°13.703 2°55.739 16.4958 4.5E-5 0.009337 -3.020363
2011-04-05 07:12:30 51°13.706 2°55.739 16.5043 4.5E-5 0.009337 -3.020363
2011-04-05 07:12:35 51°13.709 2°55.739 16.5027 4.5E-5 0.009337 -3.020363
2011-04-05 07:12:39 51°13.711 2°55.738 16.5036 4.5E-5 0.009337 -3.020363
2011-04-05 07:12:44 51°13.714 2°55.737 16.5037 4.5E-5 0.009337 -3.020363
2011-04-05 07:12:49 51°13.717 2°55.735 16.5116 4.5E-5 0.009337 -3.020363
2011-04-05 07:12:55 51°13.722 2°55.733 16.5237 4.5E-5 0.009336 -3.020363
2011-04-05 07:12:59 51°13.725 2°55.73 16.5131 4.5E-5 0.009336 -3.020363
2011-04-05 07:13:04 51°13.729 2°55.727 16.5109 4.5E-5 0.009336 -3.020363
2011-04-05 07:13:09 51°13.734 2°55.723 16.4979 4.5E-5 0.009336 -3.020363
2011-04-05 07:13:15 51°13.741 2°55.717 16.4864 4.5E-5 0.009336 -3.020363
2011-04-05 07:13:19 51°13.746 2°55.713 16.431 4.5E-5 0.009336 -3.020363
2011-04-05 07:13:24 51°13.753 2°55.707 16.4485 4.5E-5 0.009336 -3.020363
2011-04-05 07:13:29 51°13.76 2°55.7 16.4428 4.5E-5 0.009336 -3.020363
2011-04-05 07:13:34 51°13.768 2°55.693 16.4327 4.5E-5 0.009336 -3.020363
2011-04-05 07:13:39 51°13.776 2°55.685 16.4224 4.5E-5 0.009336 -3.020363
2011-04-05 07:13:44 51°13.784 2°55.677 16.4206 4.5E-5 0.009336 -3.020363
2011-04-05 07:13:50 51°13.794 2°55.668 16.4354 4.5E-5 0.009335 -3.020363
2011-04-05 07:13:55 51°13.803 2°55.659 16.4269 4.5E-5 0.009335 -3.020363
2011-04-05 07:13:59 51°13.811 2°55.652 16.4575 4.5E-5 0.009335 -3.020363
2011-04-05 07:14:04 51°13.821 2°55.644 16.439 4.5E-5 0.009335 -3.020363
2011-04-05 07:14:09 51°13.831 2°55.635 16.4787 4.5E-5 0.009335 -3.020363
2011-04-05 07:14:15 51°13.844 2°55.625 16.4711 4.5E-5 0.009335 -3.020363
2011-04-05 07:14:19 51°13.853 2°55.619 16.4859 4.5E-5 0.009335 -3.020363
2011-04-05 07:14:25 51°13.867 2°55.608 16.4871 4.5E-5 0.009335 -3.020363
2011-04-05 07:14:31 51°13.881 2°55.598 16.4798 4.5E-5 0.009335 -3.020363
2011-04-05 07:14:36 51°13.893 2°55.589 16.4207 4.5E-5 0.009335 -3.020363
2011-04-05 07:14:41 51°13.905 2°55.58 16.4769 4.5E-5 0.009335 -3.020363
2011-04-05 07:14:46 51°13.917 2°55.57 16.444 4.5E-5 0.009335 -3.020363
2011-04-05 07:14:51 51°13.929 2°55.56 16.4284 4.5E-5 0.009335 -3.020363
2011-04-05 07:14:56 51°13.941 2°55.551 16.3903 4.5E-5 0.009335 -3.020363
2011-04-05 07:15:01 51°13.953 2°55.541 16.3952 4.5E-5 0.009335 -3.020363
2011-04-05 07:15:06 51°13.966 2°55.532 16.5124 4.5E-5 0.009334 -3.020363
2011-04-05 07:15:11 51°13.978 2°55.523 16.4734 4.5E-5 0.009335 -3.020363
2011-04-05 07:15:16 51°13.991 2°55.513 16.4903 4.5E-5 0.009335 -3.020363
2011-04-05 07:15:21 51°14.003 2°55.504 16.4709 4.5E-5 0.009334 -3.020363
2011-04-05 07:15:26 51°14.016 2°55.495 16.5144 4.5E-5 0.009334 -3.020363
2011-04-05 07:15:31 51°14.029 2°55.486 16.4912 4.5E-5 0.009334 -3.020363
2011-04-05 07:15:35 51°14.04 2°55.478 16.5346 4.5E-5 0.009334 -3.020363
2011-04-05 07:15:41 51°14.055 2°55.467 16.5059 4.5E-5 0.009334 -3.020363
2011-04-05 07:15:47 51°14.07 2°55.455 16.5274 4.5E-5 0.009334 -3.020363
2011-04-05 07:15:51 51°14.08 2°55.448 16.5257 4.5E-5 0.009334 -3.020363
2011-04-05 07:15:56 51°14.093 2°55.437 16.4861 4.5E-5 0.009334 -3.020363
2011-04-05 07:16:01 51°14.106 2°55.427 16.5217 4.5E-5 0.009334 -3.020363
2011-04-05 07:16:07 51°14.121 2°55.414 16.5533 4.5E-5 0.009334 -3.020363
2011-04-05 07:16:11 51°14.132 2°55.406 16.5339 4.5E-5 0.009334 -3.020363
2011-04-05 07:16:17 51°14.147 2°55.393 16.4984 4.5E-5 0.009334 -3.020363
2011-04-05 07:16:22 51°14.16 2°55.382 16.5371 4.5E-5 0.009334 -3.020363
2011-04-05 07:16:27 51°14.174 2°55.37 16.4616 4.5E-5 0.009334 -3.020363
2011-04-05 07:16:32 51°14.187 2°55.36 16.5348 4.5E-5 0.009334 -3.020363
2011-04-05 07:16:38 51°14.203 2°55.346 16.4634 4.5E-5 0.009334 -3.020363
2011-04-05 07:16:43 51°14.216 2°55.334 16.5135 4.5E-5 0.009334 -3.020363
2011-04-05 07:16:47 51°14.227 2°55.324 16.4467 4.5E-5 0.009334 -3.020363
2011-04-05 07:16:53 51°14.243 2°55.31 16.5232 4.5E-5 0.009334 -3.020363
2011-04-05 07:16:58 51°14.256 2°55.296 16.4949 4.5E-5 0.009334 -3.020363
2011-04-05 07:17:03 51°14.269 2°55.284 16.563 4.5E-5 0.009333 -3.020363
2011-04-05 07:17:08 51°14.282 2°55.27 16.4272 4.5E-5 0.009333 -3.020363
2011-04-05 07:17:13 51°14.295 2°55.257 16.4821 4.5E-5 0.009333 -3.020363
2011-04-05 07:17:18 51°14.308 2°55.243 16.4455 4.5E-5 0.009333 -3.020363
2011-04-05 07:17:23 51°14.322 2°55.23 16.485 4.5E-5 0.009333 -3.020363
2011-04-05 07:17:28 51°14.335 2°55.216 16.4365 4.5E-5 0.009333 -3.020363
2011-04-05 07:17:32 51°14.346 2°55.206 16.445 4.5E-5 0.009333 -3.020363
2011-04-05 07:17:38 51°14.362 2°55.189 16.3818 4.5E-5 0.009333 -3.020363
2011-04-05 07:17:43 51°14.376 2°55.176 16.3975 4.5E-5 0.009334 -3.020363
2011-04-05 07:17:47 51°14.387 2°55.164 16.3785 4.5E-5 0.009334 -3.020363
2011-04-05 07:17:52 51°14.401 2°55.151 16.4233 4.5E-5 0.009334 -3.020363
2011-04-05 07:17:57 51°14.415 2°55.137 16.3657 4.5E-5 0.009333 -3.020363
2011-04-05 07:18:02 51°14.43 2°55.124 16.4246 4.5E-5 0.009334 -3.020363
2011-04-05 07:18:07 51°14.444 2°55.109 16.3799 4.5E-5 0.009334 -3.020363
2011-04-05 07:18:12 51°14.458 2°55.096 16.4285 4.5E-5 0.009334 -3.020363
2011-04-05 07:18:17 51°14.472 2°55.081 16.3804 4.5E-5 0.009334 -3.020363
2011-04-05 07:18:23 51°14.489 2°55.064 16.4095 4.5E-5 0.009334 -3.020363
2011-04-05 07:18:27 51°14.501 2°55.053 16.3915 4.5E-5 0.009334 -3.020363
2011-04-05 07:18:32 51°14.515 2°55.038 16.4156 4.5E-5 0.009333 -3.020363
2011-04-05 07:18:37 51°14.529 2°55.023 16.4154 4.5E-5 0.009333 -3.020363
2011-04-05 07:18:42 51°14.544 2°55.007 16.4421 4.5E-5 0.009333 -3.020363
2011-04-05 07:18:47 51°14.558 2°54.991 16.4925 4.5E-5 0.009333 -3.020363
2011-04-05 07:18:52 51°14.571 2°54.972 16.5449 4.5E-5 0.009333 -3.020363
2011-04-05 07:18:57 51°14.583 2°54.951 16.4879 4.5E-5 0.009332 -3.020363
2011-04-05 07:19:01 51°14.593 2°54.935 16.4708 4.5E-5 0.009332 -3.020363
2011-04-05 07:19:06 51°14.604 2°54.914 16.4675 4.5E-5 0.009332 -3.020363
2011-04-05 07:19:11 51°14.616 2°54.891 16.4553 4.5E-5 0.009332 -3.020363
2011-04-05 07:19:16 51°14.626 2°54.868 16.6308 4.5E-5 0.009332 -3.020363
2011-04-05 07:19:21 51°14.636 2°54.844 16.6375 4.5E-5 0.009331 -3.020363
2011-04-05 07:19:26 51°14.645 2°54.819 16.6513 4.5E-5 0.00933 -3.020363
2011-04-05 07:19:31 51°14.653 2°54.793 16.6906 4.5E-5 0.009329 -3.020363
2011-04-05 07:19:35 51°14.658 2°54.771 16.6749 4.5E-5 0.009329 -3.020363
2011-04-05 07:19:40 51°14.664 2°54.743 16.6647 4.5E-5 0.00933 -3.020363
2011-04-05 07:19:45 51°14.668 2°54.715 16.6599 4.5E-5 0.00933 -3.020363
2011-04-05 07:19:50 51°14.67 2°54.686 16.6446 4.5E-5 0.009331 -3.020363
2011-04-05 07:19:55 51°14.672 2°54.657 16.6546 4.5E-5 0.00933 -3.020363
2011-04-05 07:19:59 51°14.673 2°54.633 16.6339 4.5E-5 0.00933 -3.020363
2011-04-05 07:20:04 51°14.672 2°54.603 16.648 4.5E-5 0.00933 -3.020363
2011-04-05 07:20:09 51°14.67 2°54.574 16.6342 4.5E-5 0.00933 -3.020363
2011-04-05 07:20:14 51°14.666 2°54.545 16.6438 4.5E-5 0.00933 -3.020363
2011-04-05 07:20:19 51°14.662 2°54.517 16.6477 4.5E-5 0.00933 -3.020363
2011-04-05 07:20:24 51°14.656 2°54.489 16.6459 4.5E-5 0.00933 -3.020363
2011-04-05 07:20:29 51°14.649 2°54.462 16.6387 4.5E-5 0.00933 -3.020363
2011-04-05 07:20:34 51°14.64 2°54.435 16.6289 4.5E-5 0.009329 -3.020363
2011-04-05 07:20:39 51°14.631 2°54.409 16.6166 4.5E-5 0.009329 -3.020363
2011-04-05 07:20:44 51°14.622 2°54.384 16.6282 4.5E-5 0.009329 -3.020363
2011-04-05 07:20:50 51°14.609 2°54.354 16.6276 4.5E-5 0.009329 -3.020363
2011-04-05 07:20:55 51°14.598 2°54.329 16.6202 4.5E-5 0.009329 -3.020363
2011-04-05 07:20:59 51°14.59 2°54.309 16.6161 4.5E-5 0.009328 -3.020363
2011-04-05 07:21:04 51°14.579 2°54.285 16.6024 4.5E-5 0.009328 -3.020363
2011-04-05 07:21:09 51°14.568 2°54.26 16.6223 4.5E-5 0.009328 -3.020363
2011-04-05 07:21:15 51°14.555 2°54.229 16.6213 4.5E-5 0.009328 -3.020363
2011-04-05 07:21:19 51°14.547 2°54.209 16.6295 4.5E-5 0.009328 -3.020363
2011-04-05 07:21:24 51°14.537 2°54.183 16.6279 4.5E-5 0.009328 -3.020363
2011-04-05 07:21:30 51°14.525 2°54.152 16.6345 4.5E-5 0.009328 -3.020363
2011-04-05 07:21:35 51°14.516 2°54.125 16.6389 4.5E-5 0.009328 -3.020363
2011-04-05 07:21:39 51°14.508 2°54.104 16.6472 4.5E-5 0.009327 -3.020363
2011-04-05 07:21:44 51°14.499 2°54.077 16.6532 4.5E-5 0.009327 -3.020363
2011-04-05 07:21:49 51°14.489 2°54.051 16.651 4.5E-5 0.009327 -3.020363
2011-04-05 07:21:55 51°14.477 2°54.02 16.6487 4.5E-5 0.009327 -3.020363
2011-04-05 07:21:59 51°14.469 2°53.999 16.6431 4.5E-5 0.009327 -3.020363
2011-04-05 07:22:04 51°14.458 2°53.974 16.6515 4.5E-5 0.009326 -3.020363
2011-04-05 07:22:09 51°14.447 2°53.949 16.6532 4.5E-5 0.009326 -3.020363
2011-04-05 07:22:15 51°14.433 2°53.919 16.6662 4.5E-5 0.009326 -3.020363
2011-04-05 07:22:19 51°14.424 2°53.9 16.6619 4.5E-5 0.009326 -3.020363
2011-04-05 07:22:24 51°14.411 2°53.877 16.6358 4.5E-5 0.009325 -3.020363
2011-04-05 07:22:29 51°14.399 2°53.854 16.6372 4.5E-5 0.009325 -3.020363
2011-04-05 07:22:34 51°14.387 2°53.83 16.651 4.5E-5 0.009325 -3.020363
2011-04-05 07:22:39 51°14.374 2°53.807 16.6641 4.5E-5 0.009324 -3.020363
2011-04-05 07:22:44 51°14.361 2°53.784 16.6467 4.5E-5 0.009324 -3.020363
2011-04-05 07:22:49 51°14.349 2°53.761 16.6582 4.5E-5 0.009324 -3.020363
2011-04-05 07:22:54 51°14.336 2°53.739 16.6577 4.5E-5 0.009324 -3.020363
2011-04-05 07:22:59 51°14.324 2°53.715 16.6653 4.5E-5 0.009323 -3.020363
2011-04-05 07:23:04 51°14.311 2°53.692 16.6551 4.5E-5 0.009323 -3.020363
2011-04-05 07:23:10 51°14.296 2°53.664 16.6635 4.5E-5 0.009323 -3.020363
2011-04-05 07:23:15 51°14.283 2°53.641 16.6524 4.5E-5 0.009323 -3.020363
2011-04-05 07:23:19 51°14.273 2°53.622 16.6288 4.5E-5 0.009322 -3.020363
2011-04-05 07:23:24 51°14.261 2°53.599 16.6437 4.5E-5 0.009322 -3.020363
2011-04-05 07:23:29 51°14.249 2°53.575 16.6675 4.5E-5 0.009321 -3.020363
2011-04-05 07:23:35 51°14.235 2°53.546 16.6751 4.5E-5 0.009321 -3.020363
2011-04-05 07:23:39 51°14.226 2°53.526 16.6625 4.5E-5 0.00932 -3.020363
2011-04-05 07:23:44 51°14.215 2°53.501 16.6491 4.5E-5 0.00932 -3.020363
2011-04-05 07:23:50 51°14.202 2°53.47 16.6464 4.5E-5 0.00932 -3.020363
2011-04-05 07:23:55 51°14.192 2°53.444 16.6699 4.5E-5 0.00932 -3.020363
2011-04-05 07:23:59 51°14.185 2°53.423 16.6655 4.5E-5 0.009319 -3.020363
2011-04-05 07:24:04 51°14.175 2°53.396 16.6893 4.5E-5 0.009319 -3.020363
2011-04-05 07:24:09 51°14.167 2°53.369 16.6961 4.5E-5 0.009318 -3.020363
2011-04-05 07:24:15 51°14.156 2°53.336 16.694 4.5E-5 0.009318 -3.020363
2011-04-05 07:24:19 51°14.149 2°53.314 16.699 4.5E-5 0.009317 -3.020363
2011-04-05 07:24:24 51°14.14 2°53.287 16.7059 4.5E-5 0.009317 -3.020363
2011-04-05 07:24:29 51°14.131 2°53.26 16.7027 4.5E-5 0.009317 -3.020363
2011-04-05 07:24:35 51°14.12 2°53.228 16.7156 4.5E-5 0.009316 -3.020363
2011-04-05 07:24:39 51°14.112 2°53.207 16.7028 4.5E-5 0.009316 -3.020363
2011-04-05 07:24:44 51°14.101 2°53.181 16.7108 4.5E-5 0.009316 -3.020363
2011-04-05 07:24:49 51°14.09 2°53.156 16.6886 4.5E-5 0.009315 -3.020363
2011-04-05 07:24:54 51°14.079 2°53.131 16.7069 4.5E-5 0.009315 -3.020363
2011-04-05 07:24:59 51°14.067 2°53.107 16.7041 4.5E-5 0.009314 -3.020363
2011-04-05 07:25:04 51°14.055 2°53.082 16.7125 4.5E-5 0.009313 -3.020363
2011-04-05 07:25:09 51°14.044 2°53.057 16.7142 4.5E-5 0.009313 -3.020363
2011-04-05 07:25:14 51°14.032 2°53.033 16.6812 4.5E-5 0.009313 -3.020363
2011-04-05 07:25:19 51°14.02 2°53.009 16.6876 4.5E-5 0.009312 -3.020363
2011-04-05 07:25:24 51°14.008 2°52.984 16.6907 4.5E-5 0.009312 -3.020363
2011-04-05 07:25:29 51°13.997 2°52.959 16.6836 4.5E-5 0.009312 -3.020363
2011-04-05 07:25:35 51°13.984 2°52.928 16.7102 4.5E-5 0.009311 -3.020363
2011-04-05 07:25:39 51°13.975 2°52.908 16.709 4.5E-5 0.009311 -3.020363
2011-04-05 07:25:44 51°13.965 2°52.881 16.7091 4.5E-5 0.009311 -3.020363
2011-04-05 07:25:49 51°13.955 2°52.855 16.7028 4.5E-5 0.00931 -3.020363
2011-04-05 07:25:55 51°13.943 2°52.823 16.7252 4.5E-5 0.00931 -3.020363
2011-04-05 07:25:59 51°13.935 2°52.802 16.7173 4.5E-5 0.009309 -3.020363
2011-04-05 07:26:04 51°13.925 2°52.775 16.7285 4.5E-5 0.009309 -3.020363
2011-04-05 07:26:09 51°13.915 2°52.749 16.7274 4.5E-5 0.009308 -3.020363
2011-04-05 07:26:15 51°13.903 2°52.718 16.7329 4.5E-5 0.009308 -3.020363
2011-04-05 07:26:19 51°13.894 2°52.697 16.7386 4.5E-5 0.009307 -3.020363
2011-04-05 07:26:24 51°13.883 2°52.671 16.7412 4.5E-5 0.009307 -3.020363
2011-04-05 07:26:29 51°13.872 2°52.646 16.7428 4.5E-5 0.009306 -3.020363
2011-04-05 07:26:34 51°13.861 2°52.621 16.7249 4.5E-5 0.009306 -3.020363
2011-04-05 07:26:39 51°13.849 2°52.596 16.743 4.5E-5 0.009305 -3.020363
2011-04-05 07:26:44 51°13.837 2°52.572 16.7471 4.5E-5 0.009305 -3.020363
2011-04-05 07:26:49 51°13.825 2°52.547 16.7235 4.5E-5 0.009305 -3.020363
2011-04-05 07:26:55 51°13.811 2°52.518 16.7261 4.5E-5 0.009304 -3.020363
2011-04-05 07:26:59 51°13.801 2°52.499 16.7452 4.5E-5 0.009304 -3.020363
2011-04-05 07:27:04 51°13.79 2°52.474 16.7426 4.5E-5 0.009303 -3.020363
2011-04-05 07:27:09 51°13.778 2°52.449 16.7363 4.5E-5 0.009303 -3.020363
2011-04-05 07:27:15 51°13.764 2°52.42 16.7393 4.5E-5 0.009303 -3.020363
2011-04-05 07:27:19 51°13.754 2°52.4 16.7601 4.5E-5 0.009302 -3.020363
2011-04-05 07:27:24 51°13.743 2°52.375 16.7398 4.5E-5 0.009301 -3.020363
2011-04-05 07:27:30 51°13.729 2°52.345 16.7647 4.5E-5 0.009301 -3.020363
2011-04-05 07:27:35 51°13.717 2°52.32 16.7407 4.5E-5 0.0093 -3.020363
2011-04-05 07:27:39 51°13.708 2°52.301 16.7226 4.5E-5 0.0093 -3.020363
2011-04-05 07:27:44 51°13.696 2°52.276 16.7411 4.5E-5 0.0093 -3.020363
2011-04-05 07:27:49 51°13.685 2°52.251 16.7285 4.5E-5 0.0093 -3.020363
2011-04-05 07:27:55 51°13.671 2°52.22 16.7533 4.5E-5 0.009299 -3.020363
2011-04-05 07:27:59 51°13.663 2°52.2 16.7653 4.5E-5 0.009298 -3.020363
2011-04-05 07:28:04 51°13.652 2°52.173 16.7485 4.5E-5 0.009298 -3.020363
2011-04-05 07:28:10 51°13.64 2°52.142 16.771 4.5E-5 0.009297 -3.020363
2011-04-05 07:28:15 51°13.63 2°52.115 16.7649 4.5E-5 0.009297 -3.020363
2011-04-05 07:28:19 51°13.622 2°52.094 16.7872 4.5E-5 0.009297 -3.020363
2011-04-05 07:28:24 51°13.612 2°52.068 16.7868 4.5E-5 0.009296 -3.020363
2011-04-05 07:28:29 51°13.601 2°52.041 16.7779 4.5E-5 0.009295 -3.020363
2011-04-05 07:28:34 51°13.59 2°52.016 16.781 4.5E-5 0.009294 -3.020363
2011-04-05 07:28:39 51°13.579 2°51.991 16.7833 4.5E-5 0.009294 -3.020363
2011-04-05 07:28:44 51°13.568 2°51.966 16.7701 4.5E-5 0.009294 -3.020363
2011-04-05 07:28:49 51°13.556 2°51.941 16.7695 4.5E-5 0.009293 -3.020363
2011-04-05 07:28:54 51°13.545 2°51.916 16.7621 4.5E-5 0.009293 -3.020363
2011-04-05 07:28:59 51°13.533 2°51.891 16.7522 4.5E-5 0.009292 -3.020363
2011-04-05 07:29:04 51°13.522 2°51.866 16.7727 4.5E-5 0.009292 -3.020363
2011-04-05 07:29:09 51°13.511 2°51.84 16.7603 4.5E-5 0.009291 -3.020363
2011-04-05 07:29:15 51°13.499 2°51.809 16.7742 4.5E-5 0.009291 -3.020363
2011-04-05 07:29:19 51°13.491 2°51.788 16.7824 4.5E-5 0.009291 -3.020363
2011-04-05 07:29:24 51°13.48 2°51.761 16.7929 4.5E-5 0.00929 -3.020363
2011-04-05 07:29:29 51°13.47 2°51.734 16.7924 4.5E-5 0.009289 -3.020363
2011-04-05 07:29:35 51°13.458 2°51.703 16.8091 4.5E-5 0.009289 -3.020363
2011-04-05 07:29:39 51°13.45 2°51.682 16.8052 4.5E-5 0.009288 -3.020363
2011-04-05 07:29:44 51°13.439 2°51.656 16.8015 4.5E-5 0.009288 -3.020363
2011-04-05 07:29:49 51°13.428 2°51.63 16.7856 4.5E-5 0.009287 -3.020363
2011-04-05 07:29:55 51°13.415 2°51.599 16.7969 4.5E-5 0.009287 -3.020363
2011-04-05 07:29:59 51°13.406 2°51.579 16.7899 4.5E-5 0.009286 -3.020363
2011-04-05 07:30:04 51°13.395 2°51.554 16.8098 4.5E-5 0.009286 -3.020363
2011-04-05 07:30:09 51°13.383 2°51.529 16.7968 4.5E-5 0.009285 -3.020363
2011-04-05 07:30:15 51°13.369 2°51.499 16.6027 4.5E-5 0.009285 -3.020363
2011-04-05 07:30:19 51°13.359 2°51.479 16.3826 4.5E-5 0.009281 -3.020363
2011-04-05 07:30:24 51°13.348 2°51.454 16.4281 4.5E-5 0.00928 -3.020363
2011-04-05 07:30:29 51°13.336 2°51.429 16.4987 4.5E-5 0.009281 -3.020363
2011-04-05 07:30:35 51°13.323 2°51.399 16.5204 4.5E-5 0.009281 -3.020363
2011-04-05 07:30:39 51°13.314 2°51.379 16.4955 4.5E-5 0.00928 -3.020363
2011-04-05 07:30:44 51°13.303 2°51.353 16.5163 4.5E-5 0.00928 -3.020363
2011-04-05 07:30:49 51°13.292 2°51.327 16.4792 4.5E-5 0.00928 -3.020363
2011-04-05 07:30:55 51°13.28 2°51.295 16.5185 4.5E-5 0.00928 -3.020363
2011-04-05 07:30:59 51°13.272 2°51.274 16.5177 4.5E-5 0.009279 -3.020363
2011-04-05 07:31:04 51°13.261 2°51.248 16.5345 4.5E-5 0.009279 -3.020363
2011-04-05 07:31:09 51°13.251 2°51.221 16.5541 4.5E-5 0.009278 -3.020363
2011-04-05 07:31:14 51°13.24 2°51.195 16.5369 4.5E-5 0.009278 -3.020363
2011-04-05 07:31:19 51°13.23 2°51.168 16.531 4.5E-5 0.009278 -3.020363
2011-04-05 07:31:24 51°13.219 2°51.142 16.498 4.5E-5 0.009277 -3.020363
2011-04-05 07:31:29 51°13.209 2°51.116 16.5289 4.5E-5 0.009276 -3.020363
2011-04-05 07:31:35 51°13.195 2°51.085 16.5149 4.5E-5 0.009277 -3.020363
2011-04-05 07:31:39 51°13.186 2°51.065 16.4955 4.5E-5 0.009276 -3.020363
2011-04-05 07:31:44 51°13.175 2°51.039 16.5305 4.5E-5 0.009276 -3.020363
2011-04-05 07:31:49 51°13.164 2°51.014 16.5454 4.5E-5 0.009275 -3.020363
2011-04-05 07:31:55 51°13.149 2°50.984 16.5392 4.5E-5 0.009274 -3.020363
2011-04-05 07:31:59 51°13.14 2°50.964 16.5344 4.5E-5 0.009273 -3.020363
2011-04-05 07:32:04 51°13.129 2°50.939 16.5617 4.5E-5 0.009273 -3.020363
2011-04-05 07:32:09 51°13.117 2°50.914 16.5457 4.5E-5 0.009272 -3.020363
2011-04-05 07:32:15 51°13.104 2°50.884 16.5669 4.5E-5 0.009272 -3.020363
2011-04-05 07:32:19 51°13.094 2°50.864 16.5565 4.5E-5 0.009271 -3.020363
2011-04-05 07:32:24 51°13.083 2°50.838 16.5594 4.5E-5 0.009271 -3.020363
2011-04-05 07:32:30 51°13.071 2°50.807 16.5827 4.5E-5 0.00927 -3.020363
2011-04-05 07:32:35 51°13.06 2°50.781 16.5317 4.5E-5 0.009269 -3.020363
2011-04-05 07:32:39 51°13.052 2°50.76 16.5585 4.5E-5 0.009269 -3.020363
2011-04-05 07:32:44 51°13.042 2°50.733 16.5422 4.5E-5 0.009269 -3.020363
2011-04-05 07:32:49 51°13.031 2°50.708 16.5388 4.5E-5 0.009268 -3.020363
2011-04-05 07:32:54 51°13.02 2°50.682 16.5879 4.5E-5 0.009267 -3.020363
2011-04-05 07:32:59 51°13.009 2°50.656 16.5642 4.5E-5 0.009267 -3.020363
2011-04-05 07:33:04 51°12.998 2°50.631 16.57 4.5E-5 0.009266 -3.020363
2011-04-05 07:33:09 51°12.987 2°50.605 16.591 4.5E-5 0.009265 -3.020363
2011-04-05 07:33:15 51°12.973 2°50.574 16.5357 4.5E-5 0.009265 -3.020363
2011-04-05 07:33:19 51°12.964 2°50.554 16.5879 4.5E-5 0.009265 -3.020363
2011-04-05 07:33:24 51°12.954 2°50.529 16.5966 4.5E-5 0.009264 -3.020363
2011-04-05 07:33:29 51°12.942 2°50.503 16.5757 4.5E-5 0.009263 -3.020363
2011-04-05 07:33:34 51°12.932 2°50.477 16.5988 4.5E-5 0.009262 -3.020363
2011-04-05 07:33:39 51°12.921 2°50.45 16.5985 4.5E-5 0.009261 -3.020363
2011-04-05 07:33:44 51°12.911 2°50.424 16.5501 4.5E-5 0.009261 -3.020363
2011-04-05 07:33:49 51°12.901 2°50.398 16.5526 4.5E-5 0.009261 -3.020363
2011-04-05 07:33:54 51°12.891 2°50.371 16.5829 4.5E-5 0.00926 -3.020363
2011-04-05 07:33:59 51°12.88 2°50.345 16.5784 4.5E-5 0.009259 -3.020363
2011-04-05 07:34:04 51°12.87 2°50.319 16.5569 4.5E-5 0.009259 -3.020363
2011-04-05 07:34:09 51°12.859 2°50.293 16.5802 4.5E-5 0.009258 -3.020363
2011-04-05 07:34:14 51°12.849 2°50.266 16.5659 4.5E-5 0.009258 -3.020363
2011-04-05 07:34:19 51°12.838 2°50.24 16.5581 4.5E-5 0.009257 -3.020363
2011-04-05 07:34:24 51°12.828 2°50.215 16.5931 4.5E-5 0.009257 -3.020363
2011-04-05 07:34:29 51°12.817 2°50.189 16.6086 4.5E-5 0.009256 -3.020363
2011-04-05 07:34:34 51°12.806 2°50.163 16.5995 4.5E-5 0.009255 -3.020363
2011-04-05 07:34:39 51°12.795 2°50.137 16.5921 4.5E-5 0.009255 -3.020363
2011-04-05 07:34:43 51°12.787 2°50.116 16.5735 4.5E-5 0.009255 -3.020363
2011-04-05 07:34:49 51°12.775 2°50.084 16.5909 4.5E-5 0.009254 -3.020363
2011-04-05 07:34:54 51°12.766 2°50.057 16.5776 4.5E-5 0.009253 -3.020363
2011-04-05 07:34:59 51°12.756 2°50.03 16.6041 4.5E-5 0.009252 -3.020363
2011-04-05 07:35:03 51°12.749 2°50.008 16.577 4.5E-5 0.009251 -3.020363
2011-04-05 07:35:09 51°12.738 2°49.975 16.5724 4.5E-5 0.009251 -3.020363
2011-04-05 07:35:14 51°12.729 2°49.948 16.5928 4.5E-5 0.009251 -3.020363
2011-04-05 07:35:19 51°12.72 2°49.92 16.5765 4.5E-5 0.00925 -3.020363
2011-04-05 07:35:24 51°12.71 2°49.893 16.5963 4.5E-5 0.009249 -3.020363
2011-04-05 07:35:29 51°12.701 2°49.866 16.597 4.5E-5 0.009249 -3.020363
2011-04-05 07:35:34 51°12.691 2°49.839 16.5889 4.5E-5 0.009248 -3.020363
2011-04-05 07:35:39 51°12.682 2°49.812 16.5704 4.5E-5 0.009247 -3.020363
2011-04-05 07:35:44 51°12.672 2°49.786 16.5905 4.5E-5 0.009247 -3.020363
2011-04-05 07:35:49 51°12.662 2°49.759 16.587 4.5E-5 0.009247 -3.020363
2011-04-05 07:35:54 51°12.651 2°49.733 16.5869 4.5E-5 0.009246 -3.020363
2011-04-05 07:35:59 51°12.64 2°49.707 16.6273 4.5E-5 0.009245 -3.020363
2011-04-05 07:36:04 51°12.63 2°49.681 16.6232 4.5E-5 0.009245 -3.020363
2011-04-05 07:36:09 51°12.619 2°49.655 16.6119 4.5E-5 0.009244 -3.020363
2011-04-05 07:36:14 51°12.609 2°49.629 16.6203 4.5E-5 0.009244 -3.020363
2011-04-05 07:36:19 51°12.599 2°49.603 16.5974 -999 -999 -3.020363
2011-04-05 07:36:24 51°12.589 2°49.576 16.6095 4.5E-5 0.009243 -3.020363
2011-04-05 07:36:29 51°12.58 2°49.549 16.6081 4.5E-5 0.009242 -3.020363
2011-04-05 07:36:34 51°12.57 2°49.522 16.6007 4.5E-5 0.009242 -3.020363
2011-04-05 07:36:39 51°12.561 2°49.495 16.6122 4.5E-5 0.009241 -3.020363
2011-04-05 07:36:43 51°12.553 2°49.473 16.5911 4.5E-5 0.009241 -3.020363
2011-04-05 07:36:49 51°12.542 2°49.441 16.5976 4.5E-5 0.00924 -3.020363
2011-04-05 07:36:54 51°12.533 2°49.414 16.6004 4.5E-5 0.00924 -3.020363
2011-04-05 07:36:59 51°12.523 2°49.387 16.6087 4.5E-5 0.009239 -3.020363
2011-04-05 07:37:04 51°12.513 2°49.361 16.6024 4.5E-5 0.009239 -3.020363
2011-04-05 07:37:10 51°12.501 2°49.329 16.6164 4.5E-5 0.009238 -3.020363
2011-04-05 07:37:15 51°12.491 2°49.303 16.618 4.5E-5 0.009238 -3.020363
2011-04-05 07:37:19 51°12.483 2°49.282 16.6127 4.5E-5 0.009238 -3.020363
2011-04-05 07:37:24 51°12.472 2°49.256 16.6143 4.5E-5 0.009237 -3.020363
2011-04-05 07:37:29 51°12.462 2°49.229 16.6101 4.5E-5 0.009236 -3.020363
2011-04-05 07:37:34 51°12.451 2°49.203 16.609 4.5E-5 0.009236 -3.020363
2011-04-05 07:37:39 51°12.441 2°49.178 16.6138 4.5E-5 0.009235 -3.020363
2011-04-05 07:37:43 51°12.433 2°49.157 16.6242 4.5E-5 0.009235 -3.020363
2011-04-05 07:37:49 51°12.42 2°49.126 16.6314 4.5E-5 0.009235 -3.020363
2011-04-05 07:37:54 51°12.41 2°49.099 16.6159 4.5E-5 0.009234 -3.020363
2011-04-05 07:37:59 51°12.401 2°49.072 16.6532 4.5E-5 0.009234 -3.020363
2011-04-05 07:38:04 51°12.392 2°49.045 16.6258 4.5E-5 0.009233 -3.020363
2011-04-05 07:38:09 51°12.383 2°49.017 16.6374 4.5E-5 0.009233 -3.020363
2011-04-05 07:38:14 51°12.375 2°48.989 16.6471 4.5E-5 0.009233 -3.020363
2011-04-05 07:38:19 51°12.368 2°48.961 16.6194 4.5E-5 0.009232 -3.020363
2011-04-05 07:38:24 51°12.36 2°48.932 16.6233 4.5E-5 0.009231 -3.020363
2011-04-05 07:38:29 51°12.354 2°48.903 16.6411 4.5E-5 0.009231 -3.020363
2011-04-05 07:38:34 51°12.348 2°48.873 16.6104 4.5E-5 0.009231 -3.020363
2011-04-05 07:38:39 51°12.341 2°48.844 16.6329 4.5E-5 0.00923 -3.020363
2011-04-05 07:38:43 51°12.336 2°48.821 16.6301 4.5E-5 0.00923 -3.020363
2011-04-05 07:38:49 51°12.329 2°48.785 16.6187 4.5E-5 0.00923 -3.020363
2011-04-05 07:38:54 51°12.322 2°48.756 16.6146 4.5E-5 0.009229 -3.020363
2011-04-05 07:38:59 51°12.316 2°48.726 16.6195 4.5E-5 0.009229 -3.020363
2011-04-05 07:39:04 51°12.309 2°48.697 16.6168 4.5E-5 0.009228 -3.020363
2011-04-05 07:39:09 51°12.302 2°48.668 16.628 4.5E-5 0.009228 -3.020363
2011-04-05 07:39:15 51°12.294 2°48.633 16.6501 4.5E-5 0.009228 -3.020363
2011-04-05 07:39:19 51°12.288 2°48.609 16.6488 4.5E-5 0.009228 -3.020363
2011-04-05 07:39:24 51°12.281 2°48.58 16.6379 4.5E-5 0.009227 -3.020363
2011-04-05 07:39:29 51°12.274 2°48.552 16.6553 4.5E-5 0.009227 -3.020363
2011-04-05 07:39:34 51°12.267 2°48.523 16.649 4.5E-5 0.009226 -3.020363
2011-04-05 07:39:39 51°12.26 2°48.494 16.6454 4.5E-5 0.009226 -3.020363
2011-04-05 07:39:43 51°12.254 2°48.471 16.6403 4.5E-5 0.009226 -3.020363
2011-04-05 07:39:49 51°12.246 2°48.436 16.6349 4.5E-5 0.009226 -3.020363
2011-04-05 07:39:54 51°12.238 2°48.407 16.6539 4.5E-5 0.009226 -3.020363
2011-04-05 07:39:59 51°12.23 2°48.378 16.6511 4.5E-5 0.009225 -3.020363
2011-04-05 07:40:04 51°12.223 2°48.35 16.6487 4.5E-5 0.009225 -3.020363
2011-04-05 07:40:09 51°12.215 2°48.321 16.6599 4.5E-5 0.009225 -3.020363
2011-04-05 07:40:14 51°12.207 2°48.292 16.6535 4.5E-5 0.009225 -3.020363
2011-04-05 07:40:19 51°12.2 2°48.263 16.6545 4.5E-5 0.009224 -3.020363
2011-04-05 07:40:24 51°12.193 2°48.234 16.6546 4.5E-5 0.009224 -3.020363
2011-04-05 07:40:29 51°12.186 2°48.204 16.6416 4.5E-5 0.009224 -3.020363
2011-04-05 07:40:34 51°12.18 2°48.175 16.6405 4.5E-5 0.009224 -3.020363
2011-04-05 07:40:39 51°12.173 2°48.145 16.6373 4.5E-5 0.009224 -3.020363
2011-04-05 07:40:43 51°12.168 2°48.122 16.6439 4.5E-5 0.009224 -3.020363
2011-04-05 07:40:49 51°12.16 2°48.087 16.6399 4.5E-5 0.009224 -3.020363
2011-04-05 07:40:54 51°12.154 2°48.057 16.6519 4.5E-5 0.009223 -3.020363
2011-04-05 07:40:59 51°12.147 2°48.027 16.6576 4.5E-5 0.009223 -3.020363
2011-04-05 07:41:04 51°12.141 2°47.998 16.644 4.5E-5 0.009223 -3.020363
2011-04-05 07:41:09 51°12.134 2°47.969 16.6601 4.5E-5 0.009223 -3.020363
2011-04-05 07:41:14 51°12.127 2°47.94 16.6644 4.5E-5 0.009223 -3.020363
2011-04-05 07:41:19 51°12.12 2°47.911 16.6544 4.5E-5 0.009223 -3.020363
2011-04-05 07:41:24 51°12.112 2°47.882 16.6666 4.5E-5 0.009223 -3.020363
2011-04-05 07:41:29 51°12.105 2°47.853 16.6757 4.5E-5 0.009223 -3.020363
2011-04-05 07:41:34 51°12.099 2°47.824 16.6655 4.5E-5 0.009223 -3.020363
2011-04-05 07:41:39 51°12.092 2°47.794 16.6682 4.5E-5 0.009223 -3.020363
2011-04-05 07:41:43 51°12.086 2°47.771 16.669 4.5E-5 0.009223 -3.020363
2011-04-05 07:41:49 51°12.078 2°47.736 16.6606 4.5E-5 0.009223 -3.020363
2011-04-05 07:41:54 51°12.072 2°47.707 16.6764 4.5E-5 0.009223 -3.020363
2011-04-05 07:41:59 51°12.065 2°47.678 16.663 4.5E-5 0.009222 -3.020363
2011-04-05 07:42:03 51°12.06 2°47.654 16.6639 4.5E-5 0.009222 -3.020363
2011-04-05 07:42:09 51°12.051 2°47.619 16.6651 4.5E-5 0.009222 -3.020363
2011-04-05 07:42:14 51°12.044 2°47.59 16.6662 4.5E-5 0.009222 -3.020363
2011-04-05 07:42:19 51°12.037 2°47.561 16.6758 4.5E-5 0.009222 -3.020363
2011-04-05 07:42:24 51°12.029 2°47.532 16.6761 4.5E-5 0.009222 -3.020363
2011-04-05 07:42:29 51°12.021 2°47.503 16.6783 4.5E-5 0.009222 -3.020363
2011-04-05 07:42:34 51°12.014 2°47.474 16.6847 4.5E-5 0.009222 -3.020363
2011-04-05 07:42:39 51°12.006 2°47.445 16.6877 4.5E-5 0.009222 -3.020363
2011-04-05 07:42:43 51°12.001 2°47.422 16.6898 4.5E-5 0.009222 -3.020363
2011-04-05 07:42:49 51°11.992 2°47.387 16.6892 4.5E-5 0.009222 -3.020363
2011-04-05 07:42:54 51°11.985 2°47.358 16.6812 4.5E-5 0.009222 -3.020363
2011-04-05 07:42:59 51°11.978 2°47.328 16.675 4.5E-5 0.009222 -3.020363
2011-04-05 07:43:04 51°11.972 2°47.299 16.6831 4.5E-5 0.009222 -3.020363
2011-04-05 07:43:09 51°11.965 2°47.269 16.6792 4.5E-5 0.009222 -3.020363
2011-04-05 07:43:14 51°11.958 2°47.24 16.6809 4.5E-5 0.009222 -3.020363
2011-04-05 07:43:19 51°11.952 2°47.21 16.6856 4.5E-5 0.009222 -3.020363
2011-04-05 07:43:23 51°11.946 2°47.187 16.6762 4.5E-5 0.009222 -3.020363
2011-04-05 07:43:29 51°11.938 2°47.151 16.6893 4.5E-5 0.009222 -3.020363
2011-04-05 07:43:34 51°11.931 2°47.122 16.6927 4.5E-5 0.009222 -3.020363
2011-04-05 07:43:39 51°11.924 2°47.093 16.6833 4.5E-5 0.009222 -3.020363
2011-04-05 07:43:44 51°11.917 2°47.064 16.6925 4.5E-5 0.009222 -3.020363
2011-04-05 07:43:49 51°11.91 2°47.034 16.6891 4.5E-5 0.009222 -3.020363
2011-04-05 07:43:54 51°11.903 2°47.005 16.6975 4.5E-5 0.009222 -3.020363
2011-04-05 07:43:59 51°11.896 2°46.976 16.6889 4.5E-5 0.009222 -3.020363
2011-04-05 07:44:03 51°11.89 2°46.952 16.6864 4.5E-5 0.009221 -3.020363
2011-04-05 07:44:09 51°11.882 2°46.917 16.6969 4.5E-5 0.009222 -3.020363
2011-04-05 07:44:14 51°11.875 2°46.888 16.691 4.5E-5 0.009222 -3.020363
2011-04-05 07:44:19 51°11.868 2°46.858 16.6982 4.5E-5 0.009222 -3.020363
2011-04-05 07:44:24 51°11.86 2°46.829 16.6989 4.5E-5 0.009222 -3.020363
2011-04-05 07:44:29 51°11.853 2°46.8 16.6938 4.5E-5 0.009222 -3.020363
2011-04-05 07:44:34 51°11.846 2°46.771 16.7077 4.5E-5 0.009222 -3.020363
2011-04-05 07:44:39 51°11.839 2°46.742 16.6996 4.5E-5 0.009221 -3.020363
2011-04-05 07:44:43 51°11.833 2°46.718 16.6973 4.5E-5 0.009221 -3.020363
2011-04-05 07:44:49 51°11.825 2°46.683 16.7088 4.5E-5 0.009221 -3.020363
2011-04-05 07:44:54 51°11.818 2°46.653 16.7022 4.5E-5 0.009221 -3.020363
2011-04-05 07:44:59 51°11.811 2°46.624 16.7101 4.5E-5 0.009221 -3.020363
2011-04-05 07:45:04 51°11.804 2°46.594 16.7115 4.5E-5 0.009221 -3.020363
2011-04-05 07:45:09 51°11.797 2°46.565 16.7052 4.5E-5 0.009221 -3.020363
2011-04-05 07:45:14 51°11.79 2°46.535 16.7165 4.5E-5 0.009221 -3.020363
2011-04-05 07:45:19 51°11.783 2°46.506 16.7162 4.5E-5 0.009221 -3.020363
2011-04-05 07:45:23 51°11.778 2°46.482 16.708 4.5E-5 0.009221 -3.020363
2011-04-05 07:45:29 51°11.769 2°46.446 16.7099 4.5E-5 0.009221 -3.020363
2011-04-05 07:45:34 51°11.762 2°46.417 16.7101 4.5E-5 0.009221 -3.020363
2011-04-05 07:45:39 51°11.755 2°46.387 16.7145 4.5E-5 0.009221 -3.020363
2011-04-05 07:45:44 51°11.748 2°46.358 16.7105 4.5E-5 0.009221 -3.020363
2011-04-05 07:45:49 51°11.741 2°46.329 16.7159 4.5E-5 0.009221 -3.020363
2011-04-05 07:45:54 51°11.735 2°46.299 16.7173 4.5E-5 0.009221 -3.020363
2011-04-05 07:45:59 51°11.728 2°46.269 16.7103 4.5E-5 0.009221 -3.020363
2011-04-05 07:46:04 51°11.722 2°46.239 16.7147 4.5E-5 0.009221 -3.020363
2011-04-05 07:46:09 51°11.715 2°46.21 16.7166 4.5E-5 0.009221 -3.020363
2011-04-05 07:46:15 51°11.707 2°46.175 16.7125 4.5E-5 0.009221 -3.020363
2011-04-05 07:46:19 51°11.702 2°46.151 16.7253 4.5E-5 0.009221 -3.020363
2011-04-05 07:46:24 51°11.695 2°46.122 16.7184 4.5E-5 0.009221 -3.020363
2011-04-05 07:46:29 51°11.688 2°46.092 16.7201 4.5E-5 0.009221 -3.020363
2011-04-05 07:46:34 51°11.682 2°46.063 16.7195 4.5E-5 0.009221 -3.020363
2011-04-05 07:46:39 51°11.675 2°46.034 16.7231 4.5E-5 0.009221 -3.020363
2011-04-05 07:46:44 51°11.668 2°46.004 16.7249 4.5E-5 0.009221 -3.020363
2011-04-05 07:46:49 51°11.661 2°45.975 16.7237 4.5E-5 0.009221 -3.020363
2011-04-05 07:46:54 51°11.654 2°45.946 16.7256 4.5E-5 0.009221 -3.020363
2011-04-05 07:46:59 51°11.647 2°45.917 16.733 4.5E-5 0.009221 -3.020363
2011-04-05 07:47:04 51°11.639 2°45.888 16.7301 4.5E-5 0.009221 -3.020363
2011-04-05 07:47:09 51°11.632 2°45.859 16.731 4.5E-5 0.009221 -3.020363
2011-04-05 07:47:14 51°11.625 2°45.83 16.7362 4.5E-5 0.009221 -3.020363
2011-04-05 07:47:19 51°11.619 2°45.8 16.7336 4.5E-5 0.009221 -3.020363
2011-04-05 07:47:23 51°11.613 2°45.777 16.7286 4.5E-5 0.009221 -3.020363
2011-04-05 07:47:29 51°11.605 2°45.741 16.7345 4.5E-5 0.009221 -3.020363
2011-04-05 07:47:34 51°11.598 2°45.712 16.7366 4.5E-5 0.009221 -3.020363
2011-04-05 07:47:39 51°11.591 2°45.683 16.7318 4.5E-5 0.009221 -3.020363
2011-04-05 07:47:44 51°11.583 2°45.654 16.7344 4.5E-5 0.009221 -3.020363
2011-04-05 07:47:49 51°11.576 2°45.625 16.7407 4.5E-5 0.009221 -3.020363
2011-04-05 07:47:54 51°11.569 2°45.596 16.7356 4.5E-5 0.009221 -3.020363
2011-04-05 07:47:59 51°11.562 2°45.567 16.7398 4.5E-5 0.009221 -3.020363
2011-04-05 07:48:04 51°11.554 2°45.538 16.7386 4.5E-5 0.009221 -3.020363
2011-04-05 07:48:09 51°11.547 2°45.509 16.736 4.5E-5 0.009221 -3.020363
2011-04-05 07:48:14 51°11.54 2°45.479 16.7419 4.5E-5 0.009221 -3.020363
2011-04-05 07:48:19 51°11.534 2°45.45 16.7425 4.5E-5 0.009221 -3.020363
2011-04-05 07:48:23 51°11.528 2°45.426 16.7431 4.5E-5 0.009221 -3.020363
2011-04-05 07:48:29 51°11.52 2°45.391 16.7406 4.5E-5 0.009221 -3.020363
2011-04-05 07:48:34 51°11.514 2°45.362 16.7473 4.5E-5 0.009221 -3.020363
2011-04-05 07:48:39 51°11.507 2°45.333 16.7462 4.5E-5 0.009221 -3.020363
2011-04-05 07:48:44 51°11.5 2°45.303 16.7463 4.5E-5 0.009221 -3.020363
2011-04-05 07:48:49 51°11.493 2°45.274 16.7476 4.5E-5 0.009221 -3.020363
2011-04-05 07:48:55 51°11.485 2°45.239 16.7483 4.5E-5 0.009221 -3.020363
2011-04-05 07:48:59 51°11.479 2°45.215 16.7462 4.5E-5 0.009221 -3.020363
2011-04-05 07:49:04 51°11.472 2°45.186 16.7486 4.5E-5 0.009221 -3.020363
2011-04-05 07:49:09 51°11.465 2°45.157 16.7497 4.5E-5 0.009221 -3.020363
2011-04-05 07:49:14 51°11.458 2°45.128 16.7506 4.5E-5 0.009221 -3.020363
2011-04-05 07:49:19 51°11.451 2°45.099 16.753 4.5E-5 0.009221 -3.020363
2011-04-05 07:49:23 51°11.445 2°45.075 16.7568 4.5E-5 0.009221 -3.020363
2011-04-05 07:49:29 51°11.436 2°45.041 16.7596 4.5E-5 0.009221 -3.020363
2011-04-05 07:49:34 51°11.429 2°45.012 16.7625 4.5E-5 0.009221 -3.020363
2011-04-05 07:49:39 51°11.422 2°44.982 16.7592 4.5E-5 0.009221 -3.020363
2011-04-05 07:49:44 51°11.415 2°44.953 16.7581 4.5E-5 0.009221 -3.020363
2011-04-05 07:49:49 51°11.409 2°44.923 16.761 4.5E-5 0.009221 -3.020363
2011-04-05 07:49:54 51°11.402 2°44.894 16.7603 4.5E-5 0.009221 -3.020363
2011-04-05 07:49:59 51°11.396 2°44.864 16.7613 4.5E-5 0.009221 -3.020363
2011-04-05 07:50:04 51°11.389 2°44.835 16.7594 4.5E-5 0.009221 -3.020363
2011-04-05 07:50:09 51°11.382 2°44.805 16.7618 4.5E-5 0.009221 -3.020363
2011-04-05 07:50:14 51°11.375 2°44.776 16.7617 4.5E-5 0.009221 -3.020363
2011-04-05 07:50:19 51°11.368 2°44.747 16.7668 4.5E-5 0.009221 -3.020363
2011-04-05 07:50:24 51°11.361 2°44.717 16.7678 4.5E-5 0.009221 -3.020363
2011-04-05 07:50:30 51°11.352 2°44.682 16.765 4.5E-5 0.009221 -3.020363
2011-04-05 07:50:35 51°11.345 2°44.653 16.7679 4.5E-5 0.009221 -3.020363
2011-04-05 07:50:39 51°11.339 2°44.63 16.77 4.5E-5 0.009221 -3.020363
2011-04-05 07:50:44 51°11.332 2°44.601 16.7679 4.5E-5 0.009221 -3.020363
2011-04-05 07:50:49 51°11.325 2°44.571 16.7695 4.5E-5 0.009221 -3.020363
2011-04-05 07:50:54 51°11.319 2°44.542 16.7702 4.5E-5 0.009221 -3.020363
2011-04-05 07:50:59 51°11.312 2°44.512 16.7715 4.5E-5 0.009221 -3.020363
2011-04-05 07:51:03 51°11.307 2°44.489 16.7719 4.5E-5 0.009221 -3.020363
2011-04-05 07:51:09 51°11.299 2°44.454 16.7739 4.5E-5 0.009221 -3.020363
2011-04-05 07:51:14 51°11.292 2°44.424 16.7727 4.5E-5 0.009221 -3.020363
2011-04-05 07:51:19 51°11.285 2°44.395 16.7748 4.5E-5 0.009221 -3.020363
2011-04-05 07:51:24 51°11.278 2°44.366 16.7745 4.5E-5 0.009222 -3.020363
2011-04-05 07:51:29 51°11.271 2°44.337 16.776 4.5E-5 0.009222 -3.020363
2011-04-05 07:51:34 51°11.265 2°44.308 16.7777 4.5E-5 0.009222 -3.020363
2011-04-05 07:51:39 51°11.258 2°44.279 16.781 4.5E-5 0.009221 -3.020363
2011-04-05 07:51:44 51°11.251 2°44.25 16.7789 4.5E-5 0.009221 -3.020363
2011-04-05 07:51:49 51°11.244 2°44.221 16.7812 4.5E-5 0.009222 -3.020363
2011-04-05 07:51:54 51°11.237 2°44.191 16.7816 4.5E-5 0.009222 -3.020363
2011-04-05 07:51:59 51°11.23 2°44.162 16.7822 4.5E-5 0.009222 -3.020363
2011-04-05 07:52:03 51°11.225 2°44.139 16.7863 4.5E-5 0.009222 -3.020363
2011-04-05 07:52:09 51°11.217 2°44.103 16.7856 4.5E-5 0.009222 -3.020363
2011-04-05 07:52:14 51°11.21 2°44.074 16.7854 4.5E-5 0.009222 -3.020363
2011-04-05 07:52:19 51°11.204 2°44.045 16.7868 4.5E-5 0.009222 -3.020363
2011-04-05 07:52:24 51°11.197 2°44.015 16.7891 4.5E-5 0.009222 -3.020363
2011-04-05 07:52:29 51°11.191 2°43.986 16.7876 4.5E-5 0.009222 -3.020363
2011-04-05 07:52:34 51°11.184 2°43.956 16.7894 4.5E-5 0.009222 -3.020363
2011-04-05 07:52:39 51°11.177 2°43.927 16.7901 4.5E-5 0.009222 -3.020363
2011-04-05 07:52:44 51°11.171 2°43.898 16.791 4.5E-5 0.009222 -3.020363
2011-04-05 07:52:49 51°11.164 2°43.868 16.7937 4.5E-5 0.009222 -3.020363
2011-04-05 07:52:54 51°11.157 2°43.839 16.7928 4.5E-5 0.009222 -3.020363
2011-04-05 07:52:59 51°11.15 2°43.81 16.7931 4.5E-5 0.009222 -3.020363
2011-04-05 07:53:04 51°11.143 2°43.781 16.7938 4.5E-5 0.009222 -3.020363
2011-04-05 07:53:09 51°11.136 2°43.752 16.7961 4.5E-5 0.009222 -3.020363
2011-04-05 07:53:15 51°11.128 2°43.717 16.7975 4.5E-5 0.009222 -3.020363
2011-04-05 07:53:19 51°11.123 2°43.693 16.8017 4.5E-5 0.009222 -3.020363
2011-04-05 07:53:24 51°11.116 2°43.664 16.8017 4.5E-5 0.009222 -3.020363
2011-04-05 07:53:29 51°11.111 2°43.634 16.8016 4.5E-5 0.009222 -3.020363
2011-04-05 07:53:34 51°11.106 2°43.604 16.8026 4.5E-5 0.009222 -3.020363
2011-04-05 07:53:39 51°11.101 2°43.574 16.8015 4.5E-5 0.009222 -3.020363
2011-04-05 07:53:43 51°11.098 2°43.55 16.8013 4.5E-5 0.009222 -3.020363
2011-04-05 07:53:49 51°11.093 2°43.514 16.8026 4.5E-5 0.009223 -3.020363
2011-04-05 07:53:54 51°11.09 2°43.483 16.8047 4.5E-5 0.009223 -3.020363
2011-04-05 07:53:59 51°11.086 2°43.453 16.8037 4.5E-5 0.009223 -3.020363
2011-04-05 07:54:04 51°11.083 2°43.422 16.8035 4.5E-5 0.009223 -3.020363
2011-04-05 07:54:09 51°11.079 2°43.392 16.8045 4.5E-5 0.009223 -3.020363
2011-04-05 07:54:14 51°11.076 2°43.361 16.8069 4.5E-5 0.009223 -3.020363
2011-04-05 07:54:19 51°11.072 2°43.33 16.8059 4.5E-5 0.009223 -3.020363
2011-04-05 07:54:24 51°11.068 2°43.3 16.8082 4.5E-5 0.009223 -3.020363
2011-04-05 07:54:29 51°11.064 2°43.269 16.8106 4.5E-5 0.009223 -3.020363
2011-04-05 07:54:34 51°11.06 2°43.239 16.8101 4.5E-5 0.009223 -3.020363
2011-04-05 07:54:39 51°11.056 2°43.209 16.8116 4.5E-5 0.009223 -3.020363
2011-04-05 07:54:43 51°11.053 2°43.184 16.8113 4.5E-5 0.009223 -3.020363
2011-04-05 07:54:49 51°11.049 2°43.147 16.8143 4.5E-5 0.009223 -3.020363
2011-04-05 07:54:54 51°11.044 2°43.117 16.8132 4.5E-5 0.009223 -3.020363
2011-04-05 07:54:59 51°11.041 2°43.086 16.816 4.5E-5 0.009223 -3.020363
2011-04-05 07:55:04 51°11.037 2°43.055 16.8164 4.5E-5 0.009223 -3.020363
2011-04-05 07:55:09 51°11.034 2°43.024 16.8185 4.5E-5 0.009224 -3.020363
2011-04-05 07:55:15 51°11.031 2°42.987 16.8184 4.5E-5 0.009224 -3.020363
2011-04-05 07:55:19 51°11.03 2°42.962 16.8191 4.5E-5 0.009224 -3.020363
2011-04-05 07:55:24 51°11.029 2°42.931 16.8189 4.5E-5 0.009224 -3.020363
2011-04-05 07:55:29 51°11.029 2°42.9 16.8197 4.5E-5 0.009224 -3.020363
2011-04-05 07:55:34 51°11.028 2°42.869 16.8192 4.5E-5 0.009224 -3.020363
2011-04-05 07:55:39 51°11.028 2°42.837 16.8222 4.5E-5 0.009224 -3.020363
2011-04-05 07:55:43 51°11.028 2°42.814 16.8222 4.5E-5 0.009224 -3.020363
2011-04-05 07:55:49 51°11.028 2°42.78 16.8228 4.5E-5 0.009224 -3.020363
2011-04-05 07:55:54 51°11.028 2°42.754 16.8233 4.5E-5 0.009224 -3.020363
2011-04-05 07:55:59 51°11.028 2°42.729 16.822 4.5E-5 0.009224 -3.020363
2011-04-05 07:56:04 51°11.028 2°42.706 16.8239 4.5E-5 0.009224 -3.020363
2011-04-05 07:56:09 51°11.027 2°42.684 16.8216 4.5E-5 0.009224 -3.020363
2011-04-05 07:56:14 51°11.026 2°42.664 16.8214 4.5E-5 0.009224 -3.020363
2011-04-05 07:56:19 51°11.025 2°42.644 16.8229 4.5E-5 0.009224 -3.020363
2011-04-05 07:56:24 51°11.024 2°42.626 16.8234 4.5E-5 0.009224 -3.020363
2011-04-05 07:56:29 51°11.022 2°42.609 16.8257 4.5E-5 0.009224 -3.020363
2011-04-05 07:56:34 51°11.02 2°42.593 16.8228 4.5E-5 0.009224 -3.020363
2011-04-05 07:56:39 51°11.019 2°42.578 16.8258 4.5E-5 0.009224 -3.020363
2011-04-05 07:56:44 51°11.017 2°42.564 16.8277 4.5E-5 0.009224 -3.020363
2011-04-05 07:56:49 51°11.015 2°42.55 16.8263 4.5E-5 0.009224 -3.020363
2011-04-05 07:56:54 51°11.014 2°42.537 16.827 4.5E-5 0.009224 -3.020363
2011-04-05 07:56:59 51°11.012 2°42.523 16.8294 4.5E-5 0.009224 -3.020363
2011-04-05 07:57:04 51°11.01 2°42.51 16.8319 4.5E-5 0.009224 -3.020363
2011-04-05 07:57:09 51°11.009 2°42.497 16.8319 4.5E-5 0.009224 -3.020363
2011-04-05 07:57:14 51°11.008 2°42.484 16.8333 4.5E-5 0.009224 -3.020363
2011-04-05 07:57:19 51°11.008 2°42.471 16.8339 4.5E-5 0.009224 -3.020363
2011-04-05 07:57:23 51°11.008 2°42.461 16.8347 4.5E-5 0.009224 -3.020363
2011-04-05 07:57:29 51°11.008 2°42.446 16.8352 4.5E-5 0.009224 -3.020363
2011-04-05 07:57:34 51°11.01 2°42.434 16.8364 4.5E-5 0.009224 -3.020363
2011-04-05 07:57:39 51°11.011 2°42.422 16.8372 4.5E-5 0.009224 -3.020363
2011-04-05 07:57:44 51°11.013 2°42.411 16.8379 4.5E-5 0.009224 -3.020363
2011-04-05 07:57:49 51°11.015 2°42.399 16.8388 4.5E-5 0.009224 -3.020363
2011-04-05 07:57:54 51°11.017 2°42.388 16.8388 4.5E-5 0.009224 -3.020363
2011-04-05 07:57:59 51°11.02 2°42.377 16.8379 4.5E-5 0.009224 -3.020363
2011-04-05 07:58:04 51°11.023 2°42.366 16.8383 4.5E-5 0.009224 -3.020363
2011-04-05 07:58:09 51°11.026 2°42.356 16.8387 4.5E-5 0.009224 -3.020363
2011-04-05 07:58:14 51°11.029 2°42.345 16.8384 4.5E-5 0.009224 -3.020363
2011-04-05 07:58:19 51°11.032 2°42.335 16.839 4.5E-5 0.009223 -3.020363
2011-04-05 07:58:23 51°11.034 2°42.326 16.838 4.5E-5 0.009223 -3.020363
2011-04-05 07:58:29 51°11.037 2°42.313 16.8404 4.5E-5 0.009222 -3.020363
2011-04-05 07:58:34 51°11.04 2°42.302 16.8724 4.5E-5 0.009223 -3.020363
2011-04-05 07:58:39 51°11.042 2°42.291 16.8743 4.5E-5 0.009227 -3.020363
2011-04-05 07:58:44 51°11.045 2°42.28 16.873 4.5E-5 0.009227 -3.020363
2011-04-05 07:58:49 51°11.047 2°42.269 16.8702 4.5E-5 0.009227 -3.020363
2011-04-05 07:58:54 51°11.049 2°42.258 16.8661 4.5E-5 0.009227 -3.020363
2011-04-05 07:58:59 51°11.051 2°42.246 16.865 4.5E-5 0.009225 -3.020363
2011-04-05 07:59:04 51°11.052 2°42.235 16.8629 4.5E-5 0.009224 -3.020363
2011-04-05 07:59:09 51°11.053 2°42.224 16.8657 4.5E-5 0.009224 -3.020363
2011-04-05 07:59:14 51°11.055 2°42.212 16.871 4.5E-5 0.009224 -3.020363
2011-04-05 07:59:19 51°11.056 2°42.201 16.8708 4.5E-5 0.009223 -3.020363
2011-04-05 07:59:24 51°11.058 2°42.189 16.8748 4.5E-5 0.009223 -3.020363
2011-04-05 07:59:29 51°11.059 2°42.178 16.8744 4.5E-5 0.009222 -3.020363
2011-04-05 07:59:35 51°11.06 2°42.164 16.8774 4.5E-5 0.009222 -3.020363
2011-04-05 07:59:39 51°11.061 2°42.155 16.8756 4.5E-5 0.009222 -3.020363
2011-04-05 07:59:44 51°11.062 2°42.144 16.8764 4.5E-5 0.009222 -3.020363
2011-04-05 07:59:49 51°11.063 2°42.132 16.878 4.5E-5 0.009221 -3.020363
2011-04-05 07:59:54 51°11.064 2°42.121 16.8811 4.5E-5 0.009221 -3.020363
2011-04-05 07:59:59 51°11.065 2°42.11 16.8838 4.5E-5 0.00922 -3.020363
2011-04-05 08:00:03 51°11.066 2°42.101 16.887 4.5E-5 0.00922 -3.020363
2011-04-05 08:00:09 51°11.068 2°42.088 16.8879 4.5E-5 0.00922 -3.020363
2011-04-05 08:00:14 51°11.07 2°42.078 16.8895 4.5E-5 0.00922 -3.020363
2011-04-05 08:00:19 51°11.071 2°42.069 16.8912 4.5E-5 0.009219 -3.020363
2011-04-05 08:00:24 51°11.073 2°42.06 16.8944 4.5E-5 0.009219 -3.020363
2011-04-05 08:00:29 51°11.075 2°42.052 16.8955 4.5E-5 0.009218 -3.020363
2011-04-05 08:00:34 51°11.077 2°42.044 16.8968 4.5E-5 0.009218 -3.020363
2011-04-05 08:00:39 51°11.079 2°42.036 16.8994 4.5E-5 0.009217 -3.020363
2011-04-05 08:00:44 51°11.08 2°42.029 16.8998 4.5E-5 0.009217 -3.020363
2011-04-05 08:00:49 51°11.082 2°42.022 16.9018 4.5E-5 0.009217 -3.020363
2011-04-05 08:00:54 51°11.084 2°42.015 16.903 4.5E-5 0.009216 -3.020363
2011-04-05 08:00:59 51°11.085 2°42.01 16.9059 4.5E-5 0.009215 -3.020363
2011-04-05 08:01:03 51°11.087 2°42.005 16.907 4.5E-5 0.009215 -3.020363
2011-04-05 08:01:09 51°11.088 2°41.999 16.908 4.5E-5 0.009214 -3.020363
2011-04-05 08:01:14 51°11.089 2°41.994 16.909 4.5E-5 0.009214 -3.020363
2011-04-05 08:01:19 51°11.09 2°41.99 16.9119 4.5E-5 0.009214 -3.020363
2011-04-05 08:01:24 51°11.091 2°41.986 16.9135 4.5E-5 0.009213 -3.020363
2011-04-05 08:01:29 51°11.092 2°41.983 16.9151 4.5E-5 0.009212 -3.020363
2011-04-05 08:01:34 51°11.093 2°41.979 16.9178 4.5E-5 0.009212 -3.020363
2011-04-05 08:01:39 51°11.094 2°41.976 16.9197 4.5E-5 0.009211 -3.020363
2011-04-05 08:01:44 51°11.095 2°41.973 16.9212 4.5E-5 0.009211 -3.020363
2011-04-05 08:01:49 51°11.096 2°41.97 16.9238 4.5E-5 0.00921 -3.020363
2011-04-05 08:01:54 51°11.096 2°41.966 16.9253 4.5E-5 0.009209 -3.020363
2011-04-05 08:01:59 51°11.097 2°41.963 16.9263 4.5E-5 0.009209 -3.020363
2011-04-05 08:02:03 51°11.097 2°41.96 16.9284 4.5E-5 0.009208 -3.020363
2011-04-05 08:02:09 51°11.098 2°41.957 16.9303 4.5E-5 0.009207 -3.020363
2011-04-05 08:02:14 51°11.099 2°41.954 16.9314 4.5E-5 0.009207 -3.020363
2011-04-05 08:02:19 51°11.1 2°41.95 16.9339 4.5E-5 0.009206 -3.020363
2011-04-05 08:02:24 51°11.1 2°41.947 16.9353 4.5E-5 0.009205 -3.020363
2011-04-05 08:02:29 51°11.101 2°41.944 16.9377 4.5E-5 0.009205 -3.020363
2011-04-05 08:02:34 51°11.101 2°41.941 16.9386 4.5E-5 0.009204 -3.020363
2011-04-05 08:02:39 51°11.102 2°41.938 16.9388 4.5E-5 0.009203 -3.020363
2011-04-05 08:02:44 51°11.102 2°41.935 16.9424 4.5E-5 0.009203 -3.020363
2011-04-05 08:02:49 51°11.103 2°41.932 16.9436 4.5E-5 0.009202 -3.020363
2011-04-05 08:02:54 51°11.103 2°41.929 16.9454 4.5E-5 0.009202 -3.020363
2011-04-05 08:02:59 51°11.103 2°41.927 16.947 4.5E-5 0.009201 -3.020363
2011-04-05 08:03:04 51°11.104 2°41.924 16.9491 4.5E-5 0.0092 -3.020363
2011-04-05 08:03:09 51°11.104 2°41.921 16.9506 4.5E-5 0.009199 -3.020363
2011-04-05 08:03:14 51°11.104 2°41.918 16.952 4.5E-5 0.009199 -3.020363
2011-04-05 08:03:19 51°11.105 2°41.915 16.9553 4.5E-5 0.009198 -3.020363
2011-04-05 08:03:24 51°11.105 2°41.912 16.9569 4.5E-5 0.009198 -3.020363
2011-04-05 08:03:29 51°11.106 2°41.909 16.959 4.5E-5 0.009197 -3.020363
2011-04-05 08:03:34 51°11.106 2°41.907 16.9582 4.5E-5 0.009196 -3.020363
2011-04-05 08:03:39 51°11.107 2°41.904 16.961 4.5E-5 0.009195 -3.020363
2011-04-05 08:03:43 51°11.107 2°41.901 16.9612 4.5E-5 0.009195 -3.020363
2011-04-05 08:03:49 51°11.108 2°41.898 16.9628 4.5E-5 0.009194 -3.020363
2011-04-05 08:03:54 51°11.108 2°41.896 16.9657 4.5E-5 0.009194 -3.020363
2011-04-05 08:03:59 51°11.108 2°41.893 16.9691 4.5E-5 0.009193 -3.020363
2011-04-05 08:04:04 51°11.108 2°41.891 16.9703 4.5E-5 0.009192 -3.020363
2011-04-05 08:04:09 51°11.109 2°41.888 16.9731 4.5E-5 0.009191 -3.020363
2011-04-05 08:04:15 51°11.109 2°41.885 16.9741 4.5E-5 0.009191 -3.020363
2011-04-05 08:04:19 51°11.109 2°41.883 16.9747 4.5E-5 0.00919 -3.020363
2011-04-05 08:04:24 51°11.11 2°41.88 16.9783 4.5E-5 0.009189 -3.020363
2011-04-05 08:04:29 51°11.11 2°41.878 16.9789 4.5E-5 0.009189 -3.020363
2011-04-05 08:04:34 51°11.11 2°41.876 16.9818 4.5E-5 0.009188 -3.020363
2011-04-05 08:04:39 51°11.11 2°41.874 16.9826 4.5E-5 0.009187 -3.020363
2011-04-05 08:04:43 51°11.111 2°41.872 16.9825 4.5E-5 0.009187 -3.020363
2011-04-05 08:04:49 51°11.111 2°41.869 16.9839 4.5E-5 0.009186 -3.020363
2011-04-05 08:04:54 51°11.112 2°41.867 16.9866 4.5E-5 0.009185 -3.020363
2011-04-05 08:04:59 51°11.112 2°41.864 16.9866 4.5E-5 0.009184 -3.020363
2011-04-05 08:05:04 51°11.112 2°41.862 16.9885 4.5E-5 0.009183 -3.020363
2011-04-05 08:05:09 51°11.113 2°41.86 16.9925 4.5E-5 0.009182 -3.020363
2011-04-05 08:05:14 51°11.113 2°41.857 16.9942 4.5E-5 0.009182 -3.020363
2011-04-05 08:05:19 51°11.113 2°41.855 16.9958 4.5E-5 0.009181 -3.020363
2011-04-05 08:05:24 51°11.114 2°41.853 16.9952 4.5E-5 0.00918 -3.020363
2011-04-05 08:05:29 51°11.114 2°41.851 16.9962 4.5E-5 0.009179 -3.020363
2011-04-05 08:05:34 51°11.114 2°41.849 16.9988 4.5E-5 0.009178 -3.020363
2011-04-05 08:05:39 51°11.115 2°41.847 17.0015 4.5E-5 0.009177 -3.020363
2011-04-05 08:05:44 51°11.115 2°41.846 17.0038 4.5E-5 0.009177 -3.020363
2011-04-05 08:05:49 51°11.115 2°41.844 17.0055 4.5E-5 0.009176 -3.020363
2011-04-05 08:05:54 51°11.116 2°41.842 17.0081 4.5E-5 0.009175 -3.020363
2011-04-05 08:05:59 51°11.116 2°41.84 17.0067 4.5E-5 0.009174 -3.020363
2011-04-05 08:06:04 51°11.117 2°41.838 17.0116 4.5E-5 0.009173 -3.020363
2011-04-05 08:06:09 51°11.117 2°41.836 17.0142 4.5E-5 0.009172 -3.020363
2011-04-05 08:06:14 51°11.118 2°41.834 17.016 4.5E-5 0.009172 -3.020363
2011-04-05 08:06:19 51°11.118 2°41.833 17.0174 4.5E-5 0.009171 -3.020363
2011-04-05 08:06:23 51°11.118 2°41.831 17.0192 4.5E-5 0.00917 -3.020363
2011-04-05 08:06:29 51°11.119 2°41.829 17.0182 4.5E-5 0.009169 -3.020363
2011-04-05 08:06:34 51°11.119 2°41.828 17.021 4.5E-5 0.009168 -3.020363
2011-04-05 08:06:39 51°11.12 2°41.826 17.0232 4.5E-5 0.009167 -3.020363
2011-04-05 08:06:44 51°11.12 2°41.825 17.023 4.5E-5 0.009167 -3.020363
2011-04-05 08:06:49 51°11.121 2°41.823 17.0221 4.5E-5 0.009166 -3.020363
2011-04-05 08:06:54 51°11.121 2°41.822 17.0281 4.5E-5 0.009165 -3.020363
2011-04-05 08:06:59 51°11.122 2°41.82 17.029 4.5E-5 0.009164 -3.020363
2011-04-05 08:07:04 51°11.122 2°41.819 17.0343 4.5E-5 0.009163 -3.020363
2011-04-05 08:07:09 51°11.123 2°41.818 17.0363 4.5E-5 0.009162 -3.020363
2011-04-05 08:07:14 51°11.123 2°41.816 17.0367 4.5E-5 0.009162 -3.020363
2011-04-05 08:07:19 51°11.124 2°41.815 17.0394 4.5E-5 0.009161 -3.020363
2011-04-05 08:07:23 51°11.124 2°41.814 17.0382 4.5E-5 0.00916 -3.020363
2011-04-05 08:07:29 51°11.125 2°41.812 17.0373 4.5E-5 0.009159 -3.020363
2011-04-05 08:07:34 51°11.125 2°41.811 17.0381 4.5E-5 0.009157 -3.020363
2011-04-05 08:07:39 51°11.126 2°41.809 17.0444 4.5E-5 0.009156 -3.020363
2011-04-05 08:07:44 51°11.126 2°41.808 17.0477 4.5E-5 0.009156 -3.020363
2011-04-05 08:07:49 51°11.126 2°41.807 17.0497 4.5E-5 0.009155 -3.020363
2011-04-05 08:07:54 51°11.127 2°41.805 17.0514 4.5E-5 0.009154 -3.020363
2011-04-05 08:07:59 51°11.127 2°41.804 17.0536 4.5E-5 0.009154 -3.020363
2011-04-05 08:08:04 51°11.127 2°41.803 17.0542 4.5E-5 0.009152 -3.020363
2011-04-05 08:08:09 51°11.128 2°41.802 17.0548 4.5E-5 0.009152 -3.020363
2011-04-05 08:08:14 51°11.128 2°41.8 17.0579 4.5E-5 0.009152 -3.020363
2011-04-05 08:08:19 51°11.129 2°41.799 17.0594 4.5E-5 0.009151 -3.020363
2011-04-05 08:08:24 51°11.129 2°41.798 17.0623 4.5E-5 0.009149 -3.020363
2011-04-05 08:08:29 51°11.13 2°41.797 17.0618 4.5E-5 0.009148 -3.020363
2011-04-05 08:08:35 51°11.13 2°41.796 17.061 4.5E-5 0.009147 -3.020363
2011-04-05 08:08:39 51°11.13 2°41.795 17.0653 4.5E-5 0.009146 -3.020363
2011-04-05 08:08:44 51°11.131 2°41.794 17.0666 4.5E-5 0.009146 -3.020363
2011-04-05 08:08:49 51°11.131 2°41.793 17.0688 4.5E-5 0.009145 -3.020363
2011-04-05 08:08:54 51°11.131 2°41.791 17.0685 4.5E-5 0.009144 -3.020363
2011-04-05 08:08:59 51°11.132 2°41.79 17.0713 4.5E-5 0.009143 -3.020363
2011-04-05 08:09:03 51°11.132 2°41.789 17.0737 4.5E-5 0.009142 -3.020363
2011-04-05 08:09:09 51°11.133 2°41.788 17.0751 4.5E-5 0.00914 -3.020363
2011-04-05 08:09:14 51°11.133 2°41.786 17.0765 4.5E-5 0.00914 -3.020363
2011-04-05 08:09:19 51°11.133 2°41.785 17.0785 4.5E-5 0.00914 -3.020363
2011-04-05 08:09:24 51°11.133 2°41.784 17.08 4.5E-5 0.009139 -3.020363
2011-04-05 08:09:29 51°11.133 2°41.783 17.0809 4.5E-5 0.009137 -3.020363
2011-04-05 08:09:34 51°11.134 2°41.782 17.0822 4.5E-5 0.009136 -3.020363
2011-04-05 08:09:39 51°11.134 2°41.781 17.0855 4.5E-5 0.009135 -3.020363
2011-04-05 08:09:44 51°11.135 2°41.779 17.0858 4.5E-5 0.009135 -3.020363
2011-04-05 08:09:49 51°11.135 2°41.778 17.0904 4.5E-5 0.009134 -3.020363
2011-04-05 08:09:54 51°11.135 2°41.777 17.096 4.5E-5 0.009133 -3.020363
2011-04-05 08:09:59 51°11.136 2°41.776 17.0965 4.5E-5 0.009132 -3.020363
2011-04-05 08:10:03 51°11.136 2°41.776 17.0941 4.5E-5 0.009131 -3.020363
2011-04-05 08:10:09 51°11.136 2°41.775 17.0999 4.5E-5 0.009129 -3.020363
2011-04-05 08:10:14 51°11.136 2°41.774 17.0983 4.5E-5 0.009129 -3.020363
2011-04-05 08:10:19 51°11.137 2°41.772 17.1018 4.5E-5 0.009128 -3.020363
2011-04-05 08:10:24 51°11.137 2°41.771 17.1008 4.5E-5 0.009127 -3.020363
2011-04-05 08:10:29 51°11.137 2°41.77 17.1006 4.5E-5 0.009126 -3.020363
2011-04-05 08:10:34 51°11.138 2°41.769 17.1056 4.5E-5 0.009125 -3.020363
2011-04-05 08:10:39 51°11.138 2°41.768 17.1086 4.5E-5 0.009124 -3.020363
2011-04-05 08:10:44 51°11.138 2°41.766 17.1099 4.5E-5 0.009124 -3.020363
2011-04-05 08:10:49 51°11.139 2°41.765 17.1092 4.5E-5 0.009123 -3.020363
2011-04-05 08:10:54 51°11.139 2°41.764 17.1115 4.5E-5 0.009122 -3.020363
2011-04-05 08:10:59 51°11.139 2°41.763 17.1094 4.5E-5 0.00912 -3.020363
2011-04-05 08:11:03 51°11.14 2°41.762 17.1168 4.5E-5 0.009119 -3.020363
2011-04-05 08:11:09 51°11.14 2°41.76 17.1174 4.5E-5 0.009118 -3.020363
2011-04-05 08:11:14 51°11.141 2°41.759 17.1203 4.5E-5 0.009118 -3.020363
2011-04-05 08:11:19 51°11.141 2°41.758 17.1229 4.5E-5 0.009117 -3.020363
2011-04-05 08:11:24 51°11.141 2°41.756 17.1176 4.5E-5 0.009116 -3.020363
2011-04-05 08:11:29 51°11.141 2°41.755 17.1194 4.5E-5 0.009115 -3.020363
2011-04-05 08:11:34 51°11.141 2°41.754 17.1194 4.5E-5 0.009113 -3.020363
2011-04-05 08:11:39 51°11.141 2°41.753 17.1273 4.5E-5 0.009112 -3.020363
2011-04-05 08:11:44 51°11.141 2°41.752 17.1244 4.5E-5 0.009112 -3.020363
2011-04-05 08:11:49 51°11.142 2°41.751 17.1284 4.5E-5 0.009111 -3.020363
2011-04-05 08:11:54 51°11.142 2°41.75 17.1355 4.5E-5 0.00911 -3.020363
2011-04-05 08:11:59 51°11.142 2°41.748 17.1367 4.5E-5 0.009109 -3.020363
2011-04-05 08:12:04 51°11.143 2°41.747 17.137 4.5E-5 0.009108 -3.020363
2011-04-05 08:12:09 51°11.143 2°41.746 17.1357 4.5E-5 0.009107 -3.020363
2011-04-05 08:12:14 51°11.143 2°41.745 17.1444 4.5E-5 0.009107 -3.020363
2011-04-05 08:12:19 51°11.143 2°41.744 17.1454 4.5E-5 0.009105 -3.020363
2011-04-05 08:12:24 51°11.144 2°41.742 17.1479 4.5E-5 0.009104 -3.020363
2011-04-05 08:12:29 51°11.144 2°41.741 17.147 4.5E-5 0.009103 -3.020363
2011-04-05 08:12:34 51°11.144 2°41.74 17.1454 4.5E-5 0.009101 -3.020363
2011-04-05 08:12:39 51°11.145 2°41.739 17.1521 4.5E-5 0.0091 -3.020363
2011-04-05 08:12:43 51°11.145 2°41.739 17.1526 4.5E-5 0.0091 -3.020363
2011-04-05 08:12:49 51°11.145 2°41.737 17.1512 4.5E-5 0.009099 -3.020363
2011-04-05 08:12:54 51°11.146 2°41.736 17.1554 4.5E-5 0.009098 -3.020363
2011-04-05 08:12:59 51°11.146 2°41.735 17.1542 4.5E-5 0.009096 -3.020363
2011-04-05 08:13:04 51°11.146 2°41.734 17.1572 4.5E-5 0.009095 -3.020363
2011-04-05 08:13:09 51°11.147 2°41.733 17.1638 4.5E-5 0.009094 -3.020363
2011-04-05 08:13:15 51°11.147 2°41.732 17.1627 4.5E-5 0.009094 -3.020363
2011-04-05 08:13:19 51°11.147 2°41.731 17.1599 4.5E-5 0.009093 -3.020363
2011-04-05 08:13:24 51°11.148 2°41.73 17.1619 4.5E-5 0.009092 -3.020363
2011-04-05 08:13:29 51°11.148 2°41.729 17.1641 4.5E-5 0.00909 -3.020363
2011-04-05 08:13:34 51°11.148 2°41.728 17.1677 4.5E-5 0.009089 -3.020363
2011-04-05 08:13:39 51°11.149 2°41.727 17.1753 4.5E-5 0.009088 -3.020363
2011-04-05 08:13:43 51°11.149 2°41.726 17.1735 4.5E-5 0.009088 -3.020363
2011-04-05 08:13:49 51°11.149 2°41.724 17.1773 4.5E-5 0.009087 -3.020363
2011-04-05 08:13:54 51°11.15 2°41.723 17.1789 4.5E-5 0.009085 -3.020363
2011-04-05 08:13:59 51°11.15 2°41.722 17.1713 4.5E-5 0.009084 -3.020363
2011-04-05 08:14:04 51°11.15 2°41.721 17.1741 4.5E-5 0.009083 -3.020363
2011-04-05 08:14:09 51°11.151 2°41.72 17.1784 4.5E-5 0.009082 -3.020363
2011-04-05 08:14:14 51°11.151 2°41.719 17.1837 4.5E-5 0.009082 -3.020363
2011-04-05 08:14:19 51°11.151 2°41.718 17.1839 4.5E-5 0.009081 -3.020363
2011-04-05 08:14:24 51°11.152 2°41.717 17.1857 4.5E-5 0.00908 -3.020363
2011-04-05 08:14:29 51°11.152 2°41.716 17.1789 4.5E-5 0.009078 -3.020363
2011-04-05 08:14:34 51°11.152 2°41.715 17.1869 4.5E-5 0.009077 -3.020363
2011-04-05 08:14:39 51°11.153 2°41.714 17.1887 4.5E-5 0.009076 -3.020363
2011-04-05 08:14:44 51°11.153 2°41.713 17.1875 4.5E-5 0.009076 -3.020363
2011-04-05 08:14:49 51°11.153 2°41.712 17.1885 4.5E-5 0.009075 -3.020363
2011-04-05 08:14:54 51°11.154 2°41.711 17.1926 4.5E-5 0.009074 -3.020363
2011-04-05 08:14:59 51°11.154 2°41.71 17.1918 4.5E-5 0.009072 -3.020363
2011-04-05 08:15:04 51°11.154 2°41.709 17.1963 4.5E-5 0.009071 -3.020363
2011-04-05 08:15:09 51°11.154 2°41.708 17.1924 4.5E-5 0.00907 -3.020363
2011-04-05 08:15:14 51°11.155 2°41.707 17.1932 4.5E-5 0.00907 -3.020363
2011-04-05 08:15:19 51°11.155 2°41.706 17.2026 4.5E-5 0.009069 -3.020363
2011-04-05 08:15:23 51°11.155 2°41.706 17.2048 4.5E-5 0.009067 -3.020363
2011-04-05 08:15:29 51°11.156 2°41.705 17.2019 4.5E-5 0.009066 -3.020363
2011-04-05 08:15:34 51°11.156 2°41.704 17.1976 4.5E-5 0.009065 -3.020363
2011-04-05 08:15:39 51°11.157 2°41.703 17.1989 4.5E-5 0.009063 -3.020363
2011-04-05 08:15:44 51°11.157 2°41.702 17.2056 4.5E-5 0.009063 -3.020363
2011-04-05 08:15:49 51°11.157 2°41.701 17.2041 4.5E-5 0.009062 -3.020363
2011-04-05 08:15:55 51°11.157 2°41.7 17.1998 4.5E-5 0.009061 -3.020363
2011-04-05 08:15:59 51°11.157 2°41.7 17.2198 4.5E-5 0.009059 -3.020363
2011-04-05 08:16:04 51°11.158 2°41.699 17.2142 4.5E-5 0.009058 -3.020363
2011-04-05 08:16:09 51°11.158 2°41.698 17.2203 4.5E-5 0.009057 -3.020363
2011-04-05 08:16:14 51°11.158 2°41.697 17.2272 4.5E-5 0.009057 -3.020363
2011-04-05 08:16:19 51°11.158 2°41.696 17.228 4.5E-5 0.009056 -3.020363
2011-04-05 08:16:23 51°11.159 2°41.695 17.2299 4.5E-5 0.009055 -3.020363
2011-04-05 08:16:29 51°11.159 2°41.694 17.2307 4.5E-5 0.009053 -3.020363
2011-04-05 08:16:34 51°11.159 2°41.693 17.2318 4.5E-5 0.009052 -3.020363
2011-04-05 08:16:39 51°11.159 2°41.692 17.2319 4.5E-5 0.009051 -3.020363
2011-04-05 08:16:44 51°11.16 2°41.692 17.2343 4.5E-5 0.009051 -3.020363
2011-04-05 08:16:49 51°11.16 2°41.691 17.2333 4.5E-5 0.009049 -3.020363
2011-04-05 08:16:54 51°11.16 2°41.69 17.226 4.5E-5 0.009048 -3.020363
2011-04-05 08:16:59 51°11.16 2°41.689 17.2335 4.5E-5 0.009047 -3.020363
2011-04-05 08:17:04 51°11.16 2°41.688 17.2311 4.5E-5 0.009045 -3.020363
2011-04-05 08:17:09 51°11.161 2°41.687 17.2365 4.5E-5 0.009044 -3.020363
2011-04-05 08:17:14 51°11.161 2°41.686 17.235 4.5E-5 0.009044 -3.020363
2011-04-05 08:17:19 51°11.161 2°41.685 17.2427 4.5E-5 0.009043 -3.020363
2011-04-05 08:17:24 51°11.161 2°41.685 17.2377 4.5E-5 0.009042 -3.020363
2011-04-05 08:17:29 51°11.162 2°41.684 17.2403 4.5E-5 0.009041 -3.020363
2011-04-05 08:17:35 51°11.162 2°41.683 17.2497 4.5E-5 0.00904 -3.020363
2011-04-05 08:17:39 51°11.162 2°41.682 17.2487 4.5E-5 0.009039 -3.020363
2011-04-05 08:17:44 51°11.162 2°41.681 17.2467 4.5E-5 0.009039 -3.020363
2011-04-05 08:17:49 51°11.163 2°41.681 17.2455 4.5E-5 0.009037 -3.020363
2011-04-05 08:17:54 51°11.163 2°41.68 17.248 4.5E-5 0.009036 -3.020363
2011-04-05 08:17:59 51°11.163 2°41.679 17.2455 4.5E-5 0.009035 -3.020363
2011-04-05 08:18:03 51°11.163 2°41.678 17.2522 4.5E-5 0.009034 -3.020363
2011-04-05 08:18:09 51°11.163 2°41.678 17.2597 4.5E-5 0.009033 -3.020363
2011-04-05 08:18:14 51°11.164 2°41.677 17.2623 4.5E-5 0.009033 -3.020363
2011-04-05 08:18:19 51°11.164 2°41.676 17.2639 4.5E-5 0.009031 -3.020363
2011-04-05 08:18:24 51°11.164 2°41.675 17.2639 4.5E-5 0.00903 -3.020363
2011-04-05 08:18:29 51°11.164 2°41.674 17.2671 4.5E-5 0.009029 -3.020363
2011-04-05 08:18:34 51°11.164 2°41.674 17.2655 4.5E-5 0.009028 -3.020363
2011-04-05 08:18:39 51°11.164 2°41.673 17.2685 4.5E-5 0.009027 -3.020363
2011-04-05 08:18:44 51°11.165 2°41.672 17.2679 4.5E-5 0.009027 -3.020363
2011-04-05 08:18:49 51°11.165 2°41.672 17.2717 4.5E-5 0.009026 -3.020363
2011-04-05 08:18:54 51°11.165 2°41.671 17.267 4.5E-5 0.009025 -3.020363
2011-04-05 08:18:59 51°11.165 2°41.67 17.274 4.5E-5 0.009023 -3.020363
2011-04-05 08:19:03 51°11.165 2°41.669 17.2741 4.5E-5 0.009022 -3.020363
2011-04-05 08:19:09 51°11.165 2°41.668 17.272 4.5E-5 0.009021 -3.020363
2011-04-05 08:19:14 51°11.166 2°41.667 17.2751 4.5E-5 0.009021 -3.020363
2011-04-05 08:19:19 51°11.166 2°41.667 17.2765 4.5E-5 0.00902 -3.020363
2011-04-05 08:19:24 51°11.166 2°41.666 17.2777 4.5E-5 0.009019 -3.020363
2011-04-05 08:19:29 51°11.166 2°41.665 17.2849 4.5E-5 0.009018 -3.020363
2011-04-05 08:19:34 51°11.166 2°41.664 17.2898 4.5E-5 0.009016 -3.020363
2011-04-05 08:19:39 51°11.167 2°41.664 17.2844 4.5E-5 0.009015 -3.020363
2011-04-05 08:19:44 51°11.167 2°41.663 17.2818 4.5E-5 0.009015 -3.020363
2011-04-05 08:19:49 51°11.167 2°41.662 17.2925 4.5E-5 0.009014 -3.020363
2011-04-05 08:19:54 51°11.167 2°41.661 17.2907 4.5E-5 0.009013 -3.020363
2011-04-05 08:19:59 51°11.168 2°41.661 17.2916 4.5E-5 0.009012 -3.020363
2011-04-05 08:20:04 51°11.168 2°41.66 17.2956 4.5E-5 0.009011 -3.020363
2011-04-05 08:20:09 51°11.168 2°41.659 17.2963 4.5E-5 0.00901 -3.020363
2011-04-05 08:20:15 51°11.168 2°41.658 17.2985 4.5E-5 0.00901 -3.020363
2011-04-05 08:20:19 51°11.168 2°41.658 17.3016 4.5E-5 0.009009 -3.020363
2011-04-05 08:20:24 51°11.169 2°41.657 17.3049 4.5E-5 0.009008 -3.020363
2011-04-05 08:20:29 51°11.169 2°41.656 17.3119 4.5E-5 0.009007 -3.020363
2011-04-05 08:20:34 51°11.169 2°41.656 17.3118 4.5E-5 0.009006 -3.020363
2011-04-05 08:20:39 51°11.169 2°41.655 17.3051 4.5E-5 0.009005 -3.020363
2011-04-05 08:20:43 51°11.169 2°41.654 17.3051 4.5E-5 0.009005 -3.020363
2011-04-05 08:20:49 51°11.17 2°41.653 17.3157 4.5E-5 0.009004 -3.020363
2011-04-05 08:20:54 51°11.17 2°41.653 17.3201 4.5E-5 0.009003 -3.020363
2011-04-05 08:20:59 51°11.17 2°41.652 17.3132 4.5E-5 0.009002 -3.020363
2011-04-05 08:21:04 51°11.17 2°41.652 17.3202 4.5E-5 0.009001 -3.020363
2011-04-05 08:21:09 51°11.17 2°41.651 17.3136 4.5E-5 0.009 -3.020363
2011-04-05 08:21:14 51°11.17 2°41.65 17.3191 4.5E-5 0.009 -3.020363
2011-04-05 08:21:19 51°11.171 2°41.649 17.318 4.5E-5 0.008999 -3.020363
2011-04-05 08:21:24 51°11.171 2°41.648 17.3117 4.5E-5 0.008998 -3.020363
2011-04-05 08:21:29 51°11.171 2°41.648 17.3227 4.5E-5 0.008997 -3.020363
2011-04-05 08:21:34 51°11.171 2°41.647 17.325 4.5E-5 0.008996 -3.020363
2011-04-05 08:21:39 51°11.171 2°41.646 17.3213 4.5E-5 0.008995 -3.020363
2011-04-05 08:21:44 51°11.172 2°41.645 17.3236 4.5E-5 0.008995 -3.020363
2011-04-05 08:21:49 51°11.172 2°41.644 17.3227 4.5E-5 0.008994 -3.020363
2011-04-05 08:21:54 51°11.172 2°41.643 17.3116 4.5E-5 0.008994 -3.020363
2011-04-05 08:21:59 51°11.172 2°41.642 17.3142 4.5E-5 0.008993 -3.020363
2011-04-05 08:22:04 51°11.172 2°41.642 17.3311 4.5E-5 0.008992 -3.020363
2011-04-05 08:22:09 51°11.172 2°41.641 17.3333 4.5E-5 0.008991 -3.020363
2011-04-05 08:22:14 51°11.173 2°41.64 17.3437 4.5E-5 0.008991 -3.020363
2011-04-05 08:22:19 51°11.173 2°41.639 17.3432 4.5E-5 0.00899 -3.020363
2011-04-05 08:22:23 51°11.173 2°41.638 17.3449 4.5E-5 0.008989 -3.020363
2011-04-05 08:22:29 51°11.173 2°41.637 17.3428 4.5E-5 0.008989 -3.020363
2011-04-05 08:22:34 51°11.174 2°41.636 17.3394 4.5E-5 0.008987 -3.020363
2011-04-05 08:22:39 51°11.174 2°41.635 17.3361 4.5E-5 0.008986 -3.020363
2011-04-05 08:22:44 51°11.174 2°41.634 17.3489 4.5E-5 0.008986 -3.020363
2011-04-05 08:22:49 51°11.174 2°41.633 17.3428 4.5E-5 0.008986 -3.020363
2011-04-05 08:22:54 51°11.175 2°41.632 17.3486 4.5E-5 0.008985 -3.020363
2011-04-05 08:22:59 51°11.175 2°41.631 17.3507 4.5E-5 0.008984 -3.020363
2011-04-05 08:23:04 51°11.175 2°41.63 17.3572 4.5E-5 0.008983 -3.020363
2011-04-05 08:23:09 51°11.175 2°41.629 17.3607 4.5E-5 0.008983 -3.020363
2011-04-05 08:23:14 51°11.175 2°41.628 17.352 4.5E-5 0.008983 -3.020363
2011-04-05 08:23:19 51°11.175 2°41.627 17.3567 4.5E-5 0.008981 -3.020363
2011-04-05 08:23:23 51°11.176 2°41.626 17.366 4.5E-5 0.00898 -3.020363
2011-04-05 08:23:29 51°11.176 2°41.625 17.3685 4.5E-5 0.00898 -3.020363
2011-04-05 08:23:34 51°11.176 2°41.624 17.3704 4.5E-5 0.008979 -3.020363
2011-04-05 08:23:39 51°11.176 2°41.623 17.3671 4.5E-5 0.008978 -3.020363
2011-04-05 08:23:44 51°11.177 2°41.622 17.3721 4.5E-5 0.008978 -3.020363
2011-04-05 08:23:49 51°11.177 2°41.621 17.3694 4.5E-5 0.008977 -3.020363
2011-04-05 08:23:54 51°11.177 2°41.621 17.3698 4.5E-5 0.008977 -3.020363
2011-04-05 08:23:59 51°11.177 2°41.62 17.3667 4.5E-5 0.008976 -3.020363
2011-04-05 08:24:04 51°11.177 2°41.619 17.3634 4.5E-5 0.008975 -3.020363
2011-04-05 08:24:09 51°11.178 2°41.618 17.3698 4.5E-5 0.008975 -3.020363
2011-04-05 08:24:14 51°11.178 2°41.617 17.3751 4.5E-5 0.008975 -3.020363
2011-04-05 08:24:19 51°11.178 2°41.616 17.3812 4.5E-5 0.008973 -3.020363
2011-04-05 08:24:23 51°11.178 2°41.615 17.3844 4.5E-5 0.008973 -3.020363
2011-04-05 08:24:29 51°11.178 2°41.614 17.3911 4.5E-5 0.008972 -3.020363
2011-04-05 08:24:34 51°11.178 2°41.613 17.393 4.5E-5 0.008971 -3.020363
2011-04-05 08:24:39 51°11.179 2°41.613 17.3889 4.5E-5 0.00897 -3.020363
2011-04-05 08:24:44 51°11.179 2°41.612 17.3886 4.5E-5 0.00897 -3.020363
2011-04-05 08:24:49 51°11.179 2°41.611 17.3784 4.5E-5 0.008969 -3.020363
2011-04-05 08:24:54 51°11.179 2°41.61 17.3941 4.5E-5 0.008967 -3.020363
2011-04-05 08:24:59 51°11.179 2°41.609 17.3906 4.5E-5 0.008967 -3.020363
2011-04-05 08:25:04 51°11.18 2°41.609 17.3961 4.5E-5 0.008966 -3.020363
2011-04-05 08:25:09 51°11.18 2°41.608 17.3893 4.5E-5 0.008965 -3.020363
2011-04-05 08:25:14 51°11.18 2°41.607 17.3981 4.5E-5 0.008965 -3.020363
2011-04-05 08:25:19 51°11.18 2°41.606 17.3994 4.5E-5 0.008965 -3.020363
2011-04-05 08:25:23 51°11.18 2°41.605 17.4042 4.5E-5 0.008964 -3.020363
2011-04-05 08:25:29 51°11.18 2°41.604 17.4045 4.5E-5 0.008963 -3.020363
2011-04-05 08:25:34 51°11.18 2°41.604 17.4066 4.5E-5 0.008963 -3.020363
2011-04-05 08:25:39 51°11.181 2°41.603 17.3948 4.5E-5 0.008962 -3.020363
2011-04-05 08:25:44 51°11.181 2°41.602 17.3949 4.5E-5 0.008962 -3.020363
2011-04-05 08:25:49 51°11.181 2°41.601 17.3993 4.5E-5 0.008961 -3.020363
2011-04-05 08:25:54 51°11.181 2°41.6 17.4039 4.5E-5 0.008958 -3.020363
2011-04-05 08:25:59 51°11.181 2°41.599 17.3976 4.5E-5 0.008956 -3.020363
2011-04-05 08:26:04 51°11.181 2°41.599 17.401 4.5E-5 0.008954 -3.020363
2011-04-05 08:26:09 51°11.181 2°41.598 17.4113 4.5E-5 0.008954 -3.020363
2011-04-05 08:26:14 51°11.181 2°41.597 17.4129 4.5E-5 0.008954 -3.020363
2011-04-05 08:26:19 51°11.181 2°41.597 17.4108 4.5E-5 0.008952 -3.020363
2011-04-05 08:26:24 51°11.182 2°41.596 17.4071 4.5E-5 0.008952 -3.020363
2011-04-05 08:26:29 51°11.182 2°41.595 17.4158 4.5E-5 0.008951 -3.020363
2011-04-05 08:26:35 51°11.182 2°41.594 17.4211 4.5E-5 0.00895 -3.020363
2011-04-05 08:26:39 51°11.182 2°41.594 17.4235 4.5E-5 0.00895 -3.020363
2011-04-05 08:26:44 51°11.182 2°41.593 17.4144 4.5E-5 0.00895 -3.020363
2011-04-05 08:26:49 51°11.182 2°41.592 17.4215 4.5E-5 0.00895 -3.020363
2011-04-05 08:26:54 51°11.182 2°41.591 17.418 4.5E-5 0.008949 -3.020363
2011-04-05 08:26:59 51°11.182 2°41.59 17.4168 4.5E-5 0.008948 -3.020363
2011-04-05 08:27:03 51°11.182 2°41.589 17.4248 4.5E-5 0.008948 -3.020363
2011-04-05 08:27:09 51°11.182 2°41.589 17.435 4.5E-5 0.008947 -3.020363
2011-04-05 08:27:14 51°11.182 2°41.588 17.4221 4.5E-5 0.008947 -3.020363
2011-04-05 08:27:19 51°11.183 2°41.587 17.4288 4.5E-5 0.008946 -3.020363
2011-04-05 08:27:24 51°11.183 2°41.587 17.4202 4.5E-5 0.008946 -3.020363
2011-04-05 08:27:29 51°11.183 2°41.586 17.434 4.5E-5 0.008945 -3.020363
2011-04-05 08:27:34 51°11.183 2°41.585 17.4318 4.5E-5 0.008944 -3.020363
2011-04-05 08:27:39 51°11.183 2°41.585 17.4334 4.5E-5 0.008943 -3.020363
2011-04-05 08:27:44 51°11.183 2°41.584 17.4301 4.5E-5 0.008943 -3.020363
2011-04-05 08:27:49 51°11.184 2°41.583 17.4348 4.5E-5 0.008942 -3.020363
2011-04-05 08:27:54 51°11.184 2°41.582 17.4337 4.5E-5 0.008941 -3.020363
2011-04-05 08:27:59 51°11.184 2°41.581 17.4429 4.5E-5 0.00894 -3.020363
2011-04-05 08:28:03 51°11.184 2°41.581 17.4376 4.5E-5 0.008937 -3.020363
2011-04-05 08:28:09 51°11.184 2°41.58 17.4506 4.5E-5 0.008936 -3.020363
2011-04-05 08:28:14 51°11.184 2°41.58 17.4429 4.5E-5 0.008936 -3.020363
2011-04-05 08:28:19 51°11.184 2°41.579 17.4496 4.5E-5 0.008934 -3.020363
2011-04-05 08:28:24 51°11.184 2°41.578 17.4499 4.5E-5 0.008933 -3.020363
2011-04-05 08:28:29 51°11.185 2°41.578 17.4509 4.5E-5 0.008932 -3.020363
2011-04-05 08:28:34 51°11.185 2°41.577 17.4555 4.5E-5 0.008932 -3.020363
2011-04-05 08:28:39 51°11.185 2°41.576 17.4532 4.5E-5 0.008932 -3.020363
2011-04-05 08:28:44 51°11.185 2°41.575 17.4582 4.5E-5 0.008932 -3.020363
2011-04-05 08:28:49 51°11.185 2°41.575 17.4578 4.5E-5 0.008931 -3.020363
2011-04-05 08:28:54 51°11.185 2°41.574 17.4463 4.5E-5 0.00893 -3.020363
2011-04-05 08:28:59 51°11.185 2°41.573 17.454 4.5E-5 0.00893 -3.020363
2011-04-05 08:29:03 51°11.185 2°41.572 17.4644 4.5E-5 0.008929 -3.020363
2011-04-05 08:29:09 51°11.185 2°41.571 17.4641 4.5E-5 0.008928 -3.020363
2011-04-05 08:29:14 51°11.185 2°41.57 17.4573 4.5E-5 0.008928 -3.020363
2011-04-05 08:29:19 51°11.185 2°41.569 17.4589 4.5E-5 0.008927 -3.020363
2011-04-05 08:29:24 51°11.185 2°41.568 17.4543 4.5E-5 0.008926 -3.020363
2011-04-05 08:29:29 51°11.185 2°41.568 17.4618 4.5E-5 0.008925 -3.020363
2011-04-05 08:29:34 51°11.185 2°41.567 17.4675 4.5E-5 0.008924 -3.020363
2011-04-05 08:29:39 51°11.186 2°41.566 17.4733 4.5E-5 0.008923 -3.020363
2011-04-05 08:29:44 51°11.186 2°41.565 17.4797 4.5E-5 0.008923 -3.020363
2011-04-05 08:29:49 51°11.186 2°41.564 17.4809 4.5E-5 0.008923 -3.020363
2011-04-05 08:29:54 51°11.186 2°41.564 17.4769 4.5E-5 0.008922 -3.020363
2011-04-05 08:29:59 51°11.186 2°41.563 17.4728 4.5E-5 0.008921 -3.020363
2011-04-05 08:30:04 51°11.186 2°41.562 17.4692 4.5E-5 0.00892 -3.020363
2011-04-05 08:30:09 51°11.187 2°41.562 17.474 4.5E-5 0.008919 -3.020363
2011-04-05 08:30:14 51°11.187 2°41.561 17.488 4.5E-5 0.008919 -3.020363
2011-04-05 08:30:19 51°11.187 2°41.56 17.481 4.5E-5 0.008918 -3.020363
2011-04-05 08:30:24 51°11.187 2°41.559 17.4802 4.5E-5 0.008917 -3.020363
2011-04-05 08:30:29 51°11.187 2°41.559 17.4842 4.5E-5 0.008916 -3.020363
2011-04-05 08:30:34 51°11.187 2°41.558 17.4822 4.5E-5 0.008915 -3.020363
2011-04-05 08:30:39 51°11.188 2°41.557 17.4847 4.5E-5 0.008915 -3.020363
2011-04-05 08:30:43 51°11.188 2°41.556 17.4873 4.5E-5 0.008915 -3.020363
2011-04-05 08:30:49 51°11.188 2°41.556 17.4899 4.5E-5 0.008914 -3.020363
2011-04-05 08:30:54 51°11.188 2°41.555 17.4915 4.5E-5 0.008913 -3.020363
2011-04-05 08:30:59 51°11.188 2°41.554 17.5002 4.5E-5 0.008912 -3.020363
2011-04-05 08:31:04 51°11.189 2°41.553 17.5012 4.5E-5 0.008912 -3.020363
2011-04-05 08:31:09 51°11.189 2°41.553 17.5021 4.5E-5 0.008911 -3.020363
2011-04-05 08:31:15 51°11.189 2°41.552 17.5042 4.5E-5 0.008911 -3.020363
2011-04-05 08:31:19 51°11.189 2°41.551 17.495 4.5E-5 0.00891 -3.020363
2011-04-05 08:31:24 51°11.189 2°41.55 17.4957 4.5E-5 0.008909 -3.020363
2011-04-05 08:31:29 51°11.19 2°41.55 17.5023 4.5E-5 0.008907 -3.020363
2011-04-05 08:31:34 51°11.19 2°41.549 17.4998 4.5E-5 0.008906 -3.020363
2011-04-05 08:31:39 51°11.19 2°41.548 17.507 4.5E-5 0.008905 -3.020363
2011-04-05 08:31:43 51°11.19 2°41.547 17.5054 4.5E-5 0.008905 -3.020363
2011-04-05 08:31:49 51°11.19 2°41.547 17.5072 4.5E-5 0.008904 -3.020363
2011-04-05 08:31:54 51°11.191 2°41.546 17.5082 4.5E-5 0.008903 -3.020363
2011-04-05 08:31:59 51°11.191 2°41.545 17.5107 4.5E-5 0.008902 -3.020363